<?xml version='1.0' encoding='UTF-8'?><gpx version="1.1" creator="JPX - https://github.com/jenetics/jpx" xmlns="http://www.topografix.com/GPX/1/1"><trk><trkseg><trkpt lat="45.5727483" lon="8.6394017"><ele>195.0</ele><time>2026-04-06T08:56:41.455Z</time></trkpt><trkpt lat="45.5726333" lon="8.6393967"><ele>195.0</ele><time>2026-04-06T08:56:48.454Z</time></trkpt><trkpt lat="45.5726983" lon="8.6393283"><ele>195.0</ele><time>2026-04-06T08:56:58.457Z</time></trkpt><trkpt lat="45.5726683" lon="8.6392467"><ele>195.0</ele><time>2026-04-06T08:58:01.461Z</time></trkpt><trkpt lat="45.57263" lon="8.6393517"><ele>195.0</ele><time>2026-04-06T08:58:43.465Z</time></trkpt><trkpt lat="45.5725583" lon="8.639385"><ele>195.0</ele><time>2026-04-06T08:58:48.463Z</time></trkpt><trkpt lat="45.5724983" lon="8.6394633"><ele>195.0</ele><time>2026-04-06T08:58:52.462Z</time></trkpt><trkpt lat="45.572435" lon="8.639505"><ele>195.0</ele><time>2026-04-06T08:58:55.462Z</time></trkpt><trkpt lat="45.5723867" lon="8.63957"><ele>195.0</ele><time>2026-04-06T08:59:00.454Z</time></trkpt><trkpt lat="45.57239" lon="8.63966"><ele>195.0</ele><time>2026-04-06T08:59:05.466Z</time></trkpt><trkpt lat="45.57241" lon="8.63976"><ele>195.0</ele><time>2026-04-06T08:59:07.455Z</time></trkpt><trkpt lat="45.57244" lon="8.6398517"><ele>195.0</ele><time>2026-04-06T08:59:09.464Z</time></trkpt><trkpt lat="45.5724733" lon="8.6399717"><ele>195.0</ele><time>2026-04-06T08:59:12.464Z</time></trkpt><trkpt lat="45.572495" lon="8.6400583"><ele>195.0</ele><time>2026-04-06T08:59:14.464Z</time></trkpt><trkpt lat="45.57251" lon="8.64015"><ele>195.0</ele><time>2026-04-06T08:59:16.461Z</time></trkpt><trkpt lat="45.5725317" lon="8.6402417"><ele>195.0</ele><time>2026-04-06T08:59:19.465Z</time></trkpt><trkpt lat="45.57256" lon="8.6403567"><ele>195.0</ele><time>2026-04-06T08:59:22.46Z</time></trkpt><trkpt lat="45.5725417" lon="8.64046"><ele>195.0</ele><time>2026-04-06T08:59:26.464Z</time></trkpt><trkpt lat="45.572505" lon="8.6405367"><ele>195.0</ele><time>2026-04-06T08:59:29.464Z</time></trkpt><trkpt lat="45.5724583" lon="8.640615"><ele>195.0</ele><time>2026-04-06T08:59:33.463Z</time></trkpt><trkpt lat="45.5723917" lon="8.6407067"><ele>195.16666666666666</ele><time>2026-04-06T08:59:38.464Z</time></trkpt><trkpt lat="45.5723167" lon="8.640765"><ele>195.33333333333331</ele><time>2026-04-06T08:59:41.462Z</time></trkpt><trkpt lat="45.57225" lon="8.6408067"><ele>195.5</ele><time>2026-04-06T08:59:44.464Z</time></trkpt><trkpt lat="45.572165" lon="8.6408633"><ele>195.66666666666666</ele><time>2026-04-06T08:59:47.463Z</time></trkpt><trkpt lat="45.572095" lon="8.64091"><ele>195.83333333333331</ele><time>2026-04-06T08:59:50.463Z</time></trkpt><trkpt lat="45.5720183" lon="8.64096"><ele>196.0</ele><time>2026-04-06T08:59:53.463Z</time></trkpt><trkpt lat="45.5719483" lon="8.6410067"><ele>195.99999999999997</ele><time>2026-04-06T08:59:57.462Z</time></trkpt><trkpt lat="45.5718883" lon="8.6410467"><ele>196.0</ele><time>2026-04-06T09:00:01.463Z</time></trkpt><trkpt lat="45.5718217" lon="8.6411033"><ele>196.0</ele><time>2026-04-06T09:00:05.466Z</time></trkpt><trkpt lat="45.5717367" lon="8.6411983"><ele>196.0</ele><time>2026-04-06T09:00:30.457Z</time></trkpt><trkpt lat="45.5716783" lon="8.6412383"><ele>195.99999999999997</ele><time>2026-04-06T09:00:33.464Z</time></trkpt><trkpt lat="45.5716167" lon="8.6412783"><ele>196.0</ele><time>2026-04-06T09:00:35.463Z</time></trkpt><trkpt lat="45.571545" lon="8.6413267"><ele>196.16666666666666</ele><time>2026-04-06T09:00:38.469Z</time></trkpt><trkpt lat="45.5714833" lon="8.6413667"><ele>196.33333333333331</ele><time>2026-04-06T09:00:42.458Z</time></trkpt><trkpt lat="45.5714517" lon="8.6414617"><ele>196.5</ele><time>2026-04-06T09:00:51.462Z</time></trkpt><trkpt lat="45.57149" lon="8.6416017"><ele>196.66666666666669</ele><time>2026-04-06T09:00:54.468Z</time></trkpt><trkpt lat="45.5715217" lon="8.6417067"><ele>196.83333333333334</ele><time>2026-04-06T09:00:56.463Z</time></trkpt><trkpt lat="45.5715517" lon="8.64181"><ele>197.0</ele><time>2026-04-06T09:00:58.463Z</time></trkpt><trkpt lat="45.5715833" lon="8.64192"><ele>197.00000000000003</ele><time>2026-04-06T09:01:00.462Z</time></trkpt><trkpt lat="45.5716183" lon="8.64204"><ele>197.0</ele><time>2026-04-06T09:01:02.461Z</time></trkpt><trkpt lat="45.571645" lon="8.6421517"><ele>197.0</ele><time>2026-04-06T09:01:04.461Z</time></trkpt><trkpt lat="45.57167" lon="8.6422683"><ele>197.0</ele><time>2026-04-06T09:01:06.456Z</time></trkpt><trkpt lat="45.5716867" lon="8.6423817"><ele>197.00000000000003</ele><time>2026-04-06T09:01:08.464Z</time></trkpt><trkpt lat="45.571695" lon="8.64248"><ele>197.0</ele><time>2026-04-06T09:01:10.461Z</time></trkpt><trkpt lat="45.5717017" lon="8.6425783"><ele>197.0</ele><time>2026-04-06T09:01:12.463Z</time></trkpt><trkpt lat="45.57173" lon="8.6427017"><ele>197.0</ele><time>2026-04-06T09:01:15.462Z</time></trkpt><trkpt lat="45.5717517" lon="8.6427867"><ele>197.0</ele><time>2026-04-06T09:01:17.463Z</time></trkpt><trkpt lat="45.57177" lon="8.6428767"><ele>197.0</ele><time>2026-04-06T09:01:19.463Z</time></trkpt><trkpt lat="45.5717883" lon="8.6429633"><ele>197.0</ele><time>2026-04-06T09:01:21.462Z</time></trkpt><trkpt lat="45.5718083" lon="8.6430533"><ele>197.0</ele><time>2026-04-06T09:01:23.464Z</time></trkpt><trkpt lat="45.5718267" lon="8.6431433"><ele>197.0</ele><time>2026-04-06T09:01:25.462Z</time></trkpt><trkpt lat="45.571855" lon="8.6432733"><ele>197.00000000000003</ele><time>2026-04-06T09:01:28.462Z</time></trkpt><trkpt lat="45.5718783" lon="8.64338"><ele>197.0</ele><time>2026-04-06T09:01:30.459Z</time></trkpt><trkpt lat="45.5718983" lon="8.6434717"><ele>197.0</ele><time>2026-04-06T09:01:32.463Z</time></trkpt><trkpt lat="45.5719167" lon="8.64356"><ele>197.0</ele><time>2026-04-06T09:01:34.46Z</time></trkpt><trkpt lat="45.57194" lon="8.64367"><ele>197.00000000000003</ele><time>2026-04-06T09:01:37.462Z</time></trkpt><trkpt lat="45.5719667" lon="8.643795"><ele>197.0</ele><time>2026-04-06T09:01:40.46Z</time></trkpt><trkpt lat="45.57199" lon="8.6438983"><ele>197.00000000000003</ele><time>2026-04-06T09:01:44.466Z</time></trkpt><trkpt lat="45.5720133" lon="8.644015"><ele>197.0</ele><time>2026-04-06T09:01:48.462Z</time></trkpt><trkpt lat="45.5720333" lon="8.644115"><ele>197.0</ele><time>2026-04-06T09:01:52.463Z</time></trkpt><trkpt lat="45.5720567" lon="8.6442317"><ele>197.0</ele><time>2026-04-06T09:01:55.468Z</time></trkpt><trkpt lat="45.5720833" lon="8.64436"><ele>197.00000000000003</ele><time>2026-04-06T09:01:58.463Z</time></trkpt><trkpt lat="45.57211" lon="8.6444967"><ele>197.0</ele><time>2026-04-06T09:02:01.455Z</time></trkpt><trkpt lat="45.5721317" lon="8.6445983"><ele>197.33333333333334</ele><time>2026-04-06T09:02:04.463Z</time></trkpt><trkpt lat="45.5721483" lon="8.6446883"><ele>197.66666666666669</ele><time>2026-04-06T09:02:06.463Z</time></trkpt><trkpt lat="45.5721733" lon="8.6448117"><ele>198.0</ele><time>2026-04-06T09:02:09.462Z</time></trkpt><trkpt lat="45.5721933" lon="8.644935"><ele>198.33333333333331</ele><time>2026-04-06T09:02:12.461Z</time></trkpt><trkpt lat="45.5722033" lon="8.6450567"><ele>198.66666666666666</ele><time>2026-04-06T09:02:15.454Z</time></trkpt><trkpt lat="45.5722083" lon="8.6451467"><ele>199.0</ele><time>2026-04-06T09:02:17.462Z</time></trkpt><trkpt lat="45.5722167" lon="8.64524"><ele>198.99999999999997</ele><time>2026-04-06T09:02:19.463Z</time></trkpt><trkpt lat="45.5722267" lon="8.6453683"><ele>199.0</ele><time>2026-04-06T09:02:22.461Z</time></trkpt><trkpt lat="45.5722417" lon="8.6454867"><ele>199.0</ele><time>2026-04-06T09:02:25.463Z</time></trkpt><trkpt lat="45.5722517" lon="8.6456"><ele>199.0</ele><time>2026-04-06T09:02:28.462Z</time></trkpt><trkpt lat="45.5722683" lon="8.645715"><ele>198.99999999999997</ele><time>2026-04-06T09:02:31.463Z</time></trkpt><trkpt lat="45.5722733" lon="8.6458467"><ele>199.0</ele><time>2026-04-06T09:02:34.464Z</time></trkpt><trkpt lat="45.5722933" lon="8.6459667"><ele>198.99999999999997</ele><time>2026-04-06T09:02:37.463Z</time></trkpt><trkpt lat="45.5723067" lon="8.6460683"><ele>199.0</ele><time>2026-04-06T09:02:40.458Z</time></trkpt><trkpt lat="45.5723233" lon="8.646175"><ele>199.0</ele><time>2026-04-06T09:02:43.456Z</time></trkpt><trkpt lat="45.5723417" lon="8.6462683"><ele>199.0</ele><time>2026-04-06T09:02:45.464Z</time></trkpt><trkpt lat="45.5723483" lon="8.64639"><ele>199.0</ele><time>2026-04-06T09:02:48.461Z</time></trkpt><trkpt lat="45.57236" lon="8.646505"><ele>198.99999999999997</ele><time>2026-04-06T09:02:51.463Z</time></trkpt><trkpt lat="45.57239" lon="8.646585"><ele>199.0</ele><time>2026-04-06T09:02:53.465Z</time></trkpt><trkpt lat="45.572405" lon="8.6466767"><ele>198.49999999999997</ele><time>2026-04-06T09:02:55.461Z</time></trkpt><trkpt lat="45.5724167" lon="8.6467683"><ele>198.0</ele><time>2026-04-06T09:02:57.46Z</time></trkpt><trkpt lat="45.5724317" lon="8.6468917"><ele>197.5</ele><time>2026-04-06T09:03:00.463Z</time></trkpt><trkpt lat="45.5724467" lon="8.6470233"><ele>197.0</ele><time>2026-04-06T09:03:03.464Z</time></trkpt><trkpt lat="45.572465" lon="8.6471517"><ele>196.49999999999997</ele><time>2026-04-06T09:03:06.461Z</time></trkpt><trkpt lat="45.5724817" lon="8.6472417"><ele>196.0</ele><time>2026-04-06T09:03:08.466Z</time></trkpt><trkpt lat="45.5724917" lon="8.6473367"><ele>195.71428571428572</ele><time>2026-04-06T09:03:10.462Z</time></trkpt><trkpt lat="45.5725017" lon="8.6474333"><ele>195.42857142857144</ele><time>2026-04-06T09:03:12.461Z</time></trkpt><trkpt lat="45.5725067" lon="8.647525"><ele>195.14285714285714</ele><time>2026-04-06T09:03:14.464Z</time></trkpt><trkpt lat="45.572515" lon="8.6476267"><ele>194.85714285714286</ele><time>2026-04-06T09:03:16.463Z</time></trkpt><trkpt lat="45.5725183" lon="8.6477233"><ele>194.57142857142858</ele><time>2026-04-06T09:03:18.464Z</time></trkpt><trkpt lat="45.5725183" lon="8.6478217"><ele>194.28571428571428</ele><time>2026-04-06T09:03:20.466Z</time></trkpt><trkpt lat="45.5725167" lon="8.647925"><ele>194.0</ele><time>2026-04-06T09:03:22.464Z</time></trkpt><trkpt lat="45.5725167" lon="8.6480183"><ele>194.00000000000003</ele><time>2026-04-06T09:03:24.465Z</time></trkpt><trkpt lat="45.5725133" lon="8.6481433"><ele>194.0</ele><time>2026-04-06T09:03:27.466Z</time></trkpt><trkpt lat="45.57251" lon="8.648235"><ele>194.0</ele><time>2026-04-06T09:03:29.464Z</time></trkpt><trkpt lat="45.5725133" lon="8.6483533"><ele>194.0</ele><time>2026-04-06T09:03:32.463Z</time></trkpt><trkpt lat="45.57252" lon="8.648485"><ele>194.00000000000003</ele><time>2026-04-06T09:03:35.456Z</time></trkpt><trkpt lat="45.572515" lon="8.6485767"><ele>194.0</ele><time>2026-04-06T09:03:37.464Z</time></trkpt><trkpt lat="45.5725067" lon="8.6486683"><ele>194.00000000000003</ele><time>2026-04-06T09:03:39.465Z</time></trkpt><trkpt lat="45.5724983" lon="8.6487933"><ele>194.0</ele><time>2026-04-06T09:03:42.464Z</time></trkpt><trkpt lat="45.5724933" lon="8.6489217"><ele>194.0</ele><time>2026-04-06T09:03:45.462Z</time></trkpt><trkpt lat="45.5725017" lon="8.6490483"><ele>194.0</ele><time>2026-04-06T09:03:48.465Z</time></trkpt><trkpt lat="45.5725117" lon="8.6491633"><ele>194.00000000000003</ele><time>2026-04-06T09:03:51.463Z</time></trkpt><trkpt lat="45.5725067" lon="8.64928"><ele>194.0</ele><time>2026-04-06T09:03:54.464Z</time></trkpt><trkpt lat="45.5725017" lon="8.64939"><ele>193.85714285714286</ele><time>2026-04-06T09:03:57.465Z</time></trkpt><trkpt lat="45.5725083" lon="8.6494983"><ele>193.71428571428572</ele><time>2026-04-06T09:04:00.461Z</time></trkpt><trkpt lat="45.57251" lon="8.6496083"><ele>193.57142857142858</ele><time>2026-04-06T09:04:03.462Z</time></trkpt><trkpt lat="45.5725017" lon="8.6497083"><ele>193.42857142857144</ele><time>2026-04-06T09:04:05.463Z</time></trkpt><trkpt lat="45.5724833" lon="8.649805"><ele>193.28571428571428</ele><time>2026-04-06T09:04:07.463Z</time></trkpt><trkpt lat="45.57246" lon="8.64991"><ele>193.14285714285717</ele><time>2026-04-06T09:04:09.462Z</time></trkpt><trkpt lat="45.5724433" lon="8.6500017"><ele>193.0</ele><time>2026-04-06T09:04:11.461Z</time></trkpt><trkpt lat="45.572425" lon="8.650095"><ele>192.99999999999997</ele><time>2026-04-06T09:04:13.462Z</time></trkpt><trkpt lat="45.5724033" lon="8.650225"><ele>193.0</ele><time>2026-04-06T09:04:16.464Z</time></trkpt><trkpt lat="45.5723883" lon="8.6503183"><ele>193.0</ele><time>2026-04-06T09:04:18.463Z</time></trkpt><trkpt lat="45.5723667" lon="8.6504217"><ele>193.0</ele><time>2026-04-06T09:04:20.466Z</time></trkpt><trkpt lat="45.57235" lon="8.65051"><ele>192.99999999999997</ele><time>2026-04-06T09:04:22.463Z</time></trkpt><trkpt lat="45.5723317" lon="8.6506317"><ele>193.0</ele><time>2026-04-06T09:04:25.466Z</time></trkpt><trkpt lat="45.572305" lon="8.6507467"><ele>192.99999999999997</ele><time>2026-04-06T09:04:28.463Z</time></trkpt><trkpt lat="45.5722767" lon="8.6508633"><ele>193.0</ele><time>2026-04-06T09:04:31.462Z</time></trkpt><trkpt lat="45.5722517" lon="8.6509783"><ele>193.0</ele><time>2026-04-06T09:04:34.463Z</time></trkpt><trkpt lat="45.5722267" lon="8.6510867"><ele>193.0</ele><time>2026-04-06T09:04:37.463Z</time></trkpt><trkpt lat="45.5721983" lon="8.6511867"><ele>192.99999999999997</ele><time>2026-04-06T09:04:40.459Z</time></trkpt><trkpt lat="45.5721933" lon="8.6513"><ele>193.0</ele><time>2026-04-06T09:05:09.462Z</time></trkpt><trkpt lat="45.57215" lon="8.6514017"><ele>193.16666666666666</ele><time>2026-04-06T09:05:12.455Z</time></trkpt><trkpt lat="45.5721233" lon="8.6515133"><ele>193.33333333333331</ele><time>2026-04-06T09:05:15.464Z</time></trkpt><trkpt lat="45.572095" lon="8.6516467"><ele>193.5</ele><time>2026-04-06T09:05:18.463Z</time></trkpt><trkpt lat="45.5720733" lon="8.651745"><ele>193.66666666666669</ele><time>2026-04-06T09:05:20.463Z</time></trkpt><trkpt lat="45.572055" lon="8.6518417"><ele>193.83333333333334</ele><time>2026-04-06T09:05:22.463Z</time></trkpt><trkpt lat="45.5720333" lon="8.6519683"><ele>194.0</ele><time>2026-04-06T09:05:25.462Z</time></trkpt><trkpt lat="45.5720183" lon="8.6520583"><ele>194.16666666666669</ele><time>2026-04-06T09:05:27.463Z</time></trkpt><trkpt lat="45.5720067" lon="8.652185"><ele>194.33333333333334</ele><time>2026-04-06T09:05:30.463Z</time></trkpt><trkpt lat="45.5719817" lon="8.6523083"><ele>194.5</ele><time>2026-04-06T09:05:33.465Z</time></trkpt><trkpt lat="45.5719567" lon="8.6524267"><ele>194.66666666666669</ele><time>2026-04-06T09:05:36.462Z</time></trkpt><trkpt lat="45.5719483" lon="8.6525333"><ele>194.83333333333334</ele><time>2026-04-06T09:05:39.462Z</time></trkpt><trkpt lat="45.57193" lon="8.6526233"><ele>195.0</ele><time>2026-04-06T09:05:41.458Z</time></trkpt><trkpt lat="45.5719117" lon="8.652715"><ele>194.83333333333334</ele><time>2026-04-06T09:05:43.463Z</time></trkpt><trkpt lat="45.5718933" lon="8.6528067"><ele>194.66666666666669</ele><time>2026-04-06T09:05:45.462Z</time></trkpt><trkpt lat="45.5718767" lon="8.65294"><ele>194.5</ele><time>2026-04-06T09:05:48.465Z</time></trkpt><trkpt lat="45.5718583" lon="8.6530617"><ele>194.33333333333334</ele><time>2026-04-06T09:05:51.462Z</time></trkpt><trkpt lat="45.5718333" lon="8.6531467"><ele>194.16666666666669</ele><time>2026-04-06T09:05:53.464Z</time></trkpt><trkpt lat="45.5718067" lon="8.653265"><ele>194.0</ele><time>2026-04-06T09:05:56.466Z</time></trkpt><trkpt lat="45.5717767" lon="8.6533733"><ele>194.00000000000003</ele><time>2026-04-06T09:05:59.458Z</time></trkpt><trkpt lat="45.5717517" lon="8.6534717"><ele>194.0</ele><time>2026-04-06T09:06:02.462Z</time></trkpt><trkpt lat="45.5717217" lon="8.653585"><ele>194.0</ele><time>2026-04-06T09:06:05.459Z</time></trkpt><trkpt lat="45.5716983" lon="8.6537067"><ele>194.0</ele><time>2026-04-06T09:06:08.465Z</time></trkpt><trkpt lat="45.5716833" lon="8.6538183"><ele>194.00000000000003</ele><time>2026-04-06T09:06:11.461Z</time></trkpt><trkpt lat="45.5716933" lon="8.6539233"><ele>194.0</ele><time>2026-04-06T09:06:14.464Z</time></trkpt><trkpt lat="45.5717067" lon="8.6540133"><ele>193.83333333333334</ele><time>2026-04-06T09:06:17.463Z</time></trkpt><trkpt lat="45.571725" lon="8.6541317"><ele>193.66666666666669</ele><time>2026-04-06T09:06:21.466Z</time></trkpt><trkpt lat="45.57174" lon="8.6542433"><ele>193.5</ele><time>2026-04-06T09:06:24.465Z</time></trkpt><trkpt lat="45.5717633" lon="8.65435"><ele>193.33333333333331</ele><time>2026-04-06T09:06:27.463Z</time></trkpt><trkpt lat="45.5717917" lon="8.6544667"><ele>193.16666666666666</ele><time>2026-04-06T09:06:30.464Z</time></trkpt><trkpt lat="45.571815" lon="8.65459"><ele>193.0</ele><time>2026-04-06T09:06:33.464Z</time></trkpt><trkpt lat="45.5718283" lon="8.65471"><ele>192.66666666666666</ele><time>2026-04-06T09:06:36.466Z</time></trkpt><trkpt lat="45.5718383" lon="8.654825"><ele>192.33333333333331</ele><time>2026-04-06T09:06:39.465Z</time></trkpt><trkpt lat="45.571855" lon="8.6549533"><ele>192.0</ele><time>2026-04-06T09:06:42.461Z</time></trkpt><trkpt lat="45.571865" lon="8.6550783"><ele>191.66666666666666</ele><time>2026-04-06T09:06:45.467Z</time></trkpt><trkpt lat="45.5718783" lon="8.6552"><ele>191.33333333333331</ele><time>2026-04-06T09:06:48.461Z</time></trkpt><trkpt lat="45.5718833" lon="8.6553033"><ele>191.0</ele><time>2026-04-06T09:06:51.466Z</time></trkpt><trkpt lat="45.5718883" lon="8.655405"><ele>190.85714285714286</ele><time>2026-04-06T09:06:54.466Z</time></trkpt><trkpt lat="45.5718917" lon="8.6555233"><ele>190.7142857142857</ele><time>2026-04-06T09:06:57.454Z</time></trkpt><trkpt lat="45.5718967" lon="8.65564"><ele>190.57142857142856</ele><time>2026-04-06T09:07:00.465Z</time></trkpt><trkpt lat="45.5719033" lon="8.6557433"><ele>190.42857142857144</ele><time>2026-04-06T09:07:03.465Z</time></trkpt><trkpt lat="45.57192" lon="8.65584"><ele>190.28571428571428</ele><time>2026-04-06T09:07:06.466Z</time></trkpt><trkpt lat="45.5719417" lon="8.6559367"><ele>190.14285714285714</ele><time>2026-04-06T09:07:09.459Z</time></trkpt><trkpt lat="45.5719633" lon="8.6560267"><ele>190.0</ele><time>2026-04-06T09:07:12.464Z</time></trkpt><trkpt lat="45.5719883" lon="8.6561233"><ele>190.0</ele><time>2026-04-06T09:07:15.466Z</time></trkpt><trkpt lat="45.5720167" lon="8.656225"><ele>190.0</ele><time>2026-04-06T09:07:18.461Z</time></trkpt><trkpt lat="45.5720283" lon="8.6563283"><ele>190.0</ele><time>2026-04-06T09:07:21.462Z</time></trkpt><trkpt lat="45.5720567" lon="8.65644"><ele>190.0</ele><time>2026-04-06T09:07:25.464Z</time></trkpt><trkpt lat="45.5720683" lon="8.65653"><ele>190.0</ele><time>2026-04-06T09:07:28.462Z</time></trkpt><trkpt lat="45.572085" lon="8.6566483"><ele>190.0</ele><time>2026-04-06T09:07:32.464Z</time></trkpt><trkpt lat="45.572105" lon="8.6567417"><ele>190.0</ele><time>2026-04-06T09:07:35.462Z</time></trkpt><trkpt lat="45.5721267" lon="8.6568533"><ele>190.0</ele><time>2026-04-06T09:07:39.456Z</time></trkpt><trkpt lat="45.572145" lon="8.6569517"><ele>190.0</ele><time>2026-04-06T09:07:44.464Z</time></trkpt><trkpt lat="45.5721667" lon="8.657045"><ele>190.0</ele><time>2026-04-06T09:07:47.455Z</time></trkpt><trkpt lat="45.5721867" lon="8.6571483"><ele>190.0</ele><time>2026-04-06T09:07:50.465Z</time></trkpt><trkpt lat="45.572205" lon="8.6572367"><ele>190.0</ele><time>2026-04-06T09:07:53.465Z</time></trkpt><trkpt lat="45.572235" lon="8.657345"><ele>190.0</ele><time>2026-04-06T09:07:56.465Z</time></trkpt><trkpt lat="45.5722717" lon="8.6574433"><ele>190.28571428571428</ele><time>2026-04-06T09:07:59.454Z</time></trkpt><trkpt lat="45.5723017" lon="8.6575417"><ele>190.57142857142858</ele><time>2026-04-06T09:08:02.46Z</time></trkpt><trkpt lat="45.5723183" lon="8.6576467"><ele>190.85714285714283</ele><time>2026-04-06T09:08:05.46Z</time></trkpt><trkpt lat="45.572335" lon="8.6577583"><ele>191.14285714285714</ele><time>2026-04-06T09:08:09.461Z</time></trkpt><trkpt lat="45.5723583" lon="8.657845"><ele>191.42857142857142</ele><time>2026-04-06T09:08:12.465Z</time></trkpt><trkpt lat="45.572385" lon="8.65795"><ele>191.7142857142857</ele><time>2026-04-06T09:08:15.464Z</time></trkpt><trkpt lat="45.5724117" lon="8.65805"><ele>192.0</ele><time>2026-04-06T09:08:18.461Z</time></trkpt><trkpt lat="45.572435" lon="8.6581483"><ele>191.99999999999997</ele><time>2026-04-06T09:08:21.464Z</time></trkpt><trkpt lat="45.5724517" lon="8.6582567"><ele>192.0</ele><time>2026-04-06T09:08:24.463Z</time></trkpt><trkpt lat="45.572465" lon="8.6583583"><ele>192.0</ele><time>2026-04-06T09:08:27.463Z</time></trkpt><trkpt lat="45.5724783" lon="8.6584533"><ele>192.0</ele><time>2026-04-06T09:08:30.453Z</time></trkpt><trkpt lat="45.57249" lon="8.6585433"><ele>192.0</ele><time>2026-04-06T09:08:33.465Z</time></trkpt><trkpt lat="45.5725017" lon="8.6586433"><ele>191.99999999999997</ele><time>2026-04-06T09:08:36.464Z</time></trkpt><trkpt lat="45.572515" lon="8.658745"><ele>192.0</ele><time>2026-04-06T09:08:39.458Z</time></trkpt><trkpt lat="45.5725267" lon="8.6588467"><ele>192.0</ele><time>2026-04-06T09:08:42.462Z</time></trkpt><trkpt lat="45.57254" lon="8.658965"><ele>192.0</ele><time>2026-04-06T09:08:45.462Z</time></trkpt><trkpt lat="45.5725533" lon="8.659085"><ele>192.0</ele><time>2026-04-06T09:08:48.459Z</time></trkpt><trkpt lat="45.5725617" lon="8.659185"><ele>192.0</ele><time>2026-04-06T09:08:51.459Z</time></trkpt><trkpt lat="45.572575" lon="8.6592733"><ele>192.0</ele><time>2026-04-06T09:08:54.462Z</time></trkpt><trkpt lat="45.572595" lon="8.6593933"><ele>192.0</ele><time>2026-04-06T09:08:57.464Z</time></trkpt><trkpt lat="45.5726117" lon="8.6595"><ele>192.0</ele><time>2026-04-06T09:09:00.462Z</time></trkpt><trkpt lat="45.5726267" lon="8.659595"><ele>192.0</ele><time>2026-04-06T09:09:03.464Z</time></trkpt><trkpt lat="45.5726483" lon="8.6596933"><ele>192.0</ele><time>2026-04-06T09:09:07.467Z</time></trkpt><trkpt lat="45.5726683" lon="8.6598"><ele>192.0</ele><time>2026-04-06T09:09:12.463Z</time></trkpt><trkpt lat="45.5726967" lon="8.6599117"><ele>192.0</ele><time>2026-04-06T09:09:16.458Z</time></trkpt><trkpt lat="45.5727233" lon="8.660025"><ele>192.0</ele><time>2026-04-06T09:09:19.456Z</time></trkpt><trkpt lat="45.5727517" lon="8.660145"><ele>192.0</ele><time>2026-04-06T09:09:22.461Z</time></trkpt><trkpt lat="45.5727783" lon="8.66027"><ele>192.0</ele><time>2026-04-06T09:09:25.464Z</time></trkpt><trkpt lat="45.5728033" lon="8.6603917"><ele>192.0</ele><time>2026-04-06T09:09:28.453Z</time></trkpt><trkpt lat="45.5728333" lon="8.6605033"><ele>192.0</ele><time>2026-04-06T09:09:31.462Z</time></trkpt><trkpt lat="45.5728583" lon="8.6606067"><ele>192.0</ele><time>2026-04-06T09:09:34.461Z</time></trkpt><trkpt lat="45.5728817" lon="8.660695"><ele>192.0</ele><time>2026-04-06T09:09:37.463Z</time></trkpt><trkpt lat="45.5729083" lon="8.6608017"><ele>191.85714285714283</ele><time>2026-04-06T09:09:41.459Z</time></trkpt><trkpt lat="45.5729367" lon="8.6609017"><ele>191.71428571428572</ele><time>2026-04-06T09:09:45.463Z</time></trkpt><trkpt lat="45.572965" lon="8.66101"><ele>191.57142857142856</ele><time>2026-04-06T09:09:49.464Z</time></trkpt><trkpt lat="45.57299" lon="8.6610933"><ele>191.42857142857142</ele><time>2026-04-06T09:09:53.465Z</time></trkpt><trkpt lat="45.5730117" lon="8.66118"><ele>191.28571428571428</ele><time>2026-04-06T09:09:57.466Z</time></trkpt><trkpt lat="45.57304" lon="8.661265"><ele>191.14285714285714</ele><time>2026-04-06T09:10:00.463Z</time></trkpt><trkpt lat="45.573075" lon="8.6613783"><ele>191.0</ele><time>2026-04-06T09:10:04.461Z</time></trkpt><trkpt lat="45.5731033" lon="8.6614617"><ele>191.0</ele><time>2026-04-06T09:10:07.462Z</time></trkpt><trkpt lat="45.573135" lon="8.6615733"><ele>191.0</ele><time>2026-04-06T09:10:11.46Z</time></trkpt><trkpt lat="45.5731667" lon="8.6616567"><ele>191.0</ele><time>2026-04-06T09:10:14.465Z</time></trkpt><trkpt lat="45.5731983" lon="8.66176"><ele>191.0</ele><time>2026-04-06T09:10:18.463Z</time></trkpt><trkpt lat="45.573225" lon="8.661855"><ele>191.0</ele><time>2026-04-06T09:10:22.465Z</time></trkpt><trkpt lat="45.573255" lon="8.661945"><ele>191.0</ele><time>2026-04-06T09:10:25.459Z</time></trkpt><trkpt lat="45.5732817" lon="8.6620433"><ele>191.0</ele><time>2026-04-06T09:10:28.456Z</time></trkpt><trkpt lat="45.5733067" lon="8.6621383"><ele>190.66666666666666</ele><time>2026-04-06T09:10:31.462Z</time></trkpt><trkpt lat="45.5733317" lon="8.6622383"><ele>190.33333333333331</ele><time>2026-04-06T09:10:34.462Z</time></trkpt><trkpt lat="45.5733617" lon="8.6623433"><ele>190.0</ele><time>2026-04-06T09:10:37.46Z</time></trkpt><trkpt lat="45.5733867" lon="8.662465"><ele>189.66666666666666</ele><time>2026-04-06T09:10:40.456Z</time></trkpt><trkpt lat="45.5734117" lon="8.6625717"><ele>189.33333333333334</ele><time>2026-04-06T09:10:43.46Z</time></trkpt><trkpt lat="45.5734317" lon="8.6626683"><ele>189.0</ele><time>2026-04-06T09:10:46.462Z</time></trkpt><trkpt lat="45.5734633" lon="8.6627783"><ele>189.16666666666666</ele><time>2026-04-06T09:10:49.465Z</time></trkpt><trkpt lat="45.5734917" lon="8.6628867"><ele>189.33333333333334</ele><time>2026-04-06T09:10:52.456Z</time></trkpt><trkpt lat="45.5735217" lon="8.6629967"><ele>189.5</ele><time>2026-04-06T09:10:56.462Z</time></trkpt><trkpt lat="45.5735433" lon="8.6630833"><ele>189.66666666666669</ele><time>2026-04-06T09:10:59.46Z</time></trkpt><trkpt lat="45.5735683" lon="8.6631733"><ele>189.83333333333334</ele><time>2026-04-06T09:11:03.461Z</time></trkpt><trkpt lat="45.5735983" lon="8.66328"><ele>190.0</ele><time>2026-04-06T09:11:08.464Z</time></trkpt><trkpt lat="45.573625" lon="8.66339"><ele>190.0</ele><time>2026-04-06T09:11:12.462Z</time></trkpt><trkpt lat="45.573645" lon="8.6634767"><ele>190.0</ele><time>2026-04-06T09:11:16.456Z</time></trkpt><trkpt lat="45.5736667" lon="8.6635833"><ele>190.0</ele><time>2026-04-06T09:11:21.464Z</time></trkpt><trkpt lat="45.5736833" lon="8.6636717"><ele>190.0</ele><time>2026-04-06T09:11:25.463Z</time></trkpt><trkpt lat="45.5737067" lon="8.66377"><ele>190.0</ele><time>2026-04-06T09:11:29.461Z</time></trkpt><trkpt lat="45.573725" lon="8.6638617"><ele>190.0</ele><time>2026-04-06T09:11:34.462Z</time></trkpt><trkpt lat="45.5737433" lon="8.6639683"><ele>190.0</ele><time>2026-04-06T09:11:39.462Z</time></trkpt><trkpt lat="45.573765" lon="8.664075"><ele>190.14285714285714</ele><time>2026-04-06T09:11:44.465Z</time></trkpt><trkpt lat="45.573785" lon="8.6641783"><ele>190.28571428571428</ele><time>2026-04-06T09:11:49.464Z</time></trkpt><trkpt lat="45.5738083" lon="8.664275"><ele>190.42857142857144</ele><time>2026-04-06T09:11:54.462Z</time></trkpt><trkpt lat="45.57383" lon="8.6643667"><ele>190.57142857142856</ele><time>2026-04-06T09:11:59.463Z</time></trkpt><trkpt lat="45.573845" lon="8.6644617"><ele>190.7142857142857</ele><time>2026-04-06T09:12:04.454Z</time></trkpt><trkpt lat="45.57387" lon="8.66456"><ele>190.85714285714286</ele><time>2026-04-06T09:12:08.464Z</time></trkpt><trkpt lat="45.5738933" lon="8.6646633"><ele>191.0</ele><time>2026-04-06T09:12:12.463Z</time></trkpt><trkpt lat="45.5739133" lon="8.6647567"><ele>191.0</ele><time>2026-04-06T09:12:16.461Z</time></trkpt><trkpt lat="45.5739333" lon="8.6648667"><ele>191.0</ele><time>2026-04-06T09:12:20.465Z</time></trkpt><trkpt lat="45.5739533" lon="8.6649733"><ele>191.0</ele><time>2026-04-06T09:12:23.461Z</time></trkpt><trkpt lat="45.5739717" lon="8.6650633"><ele>191.0</ele><time>2026-04-06T09:12:25.463Z</time></trkpt><trkpt lat="45.573995" lon="8.6651633"><ele>191.0</ele><time>2026-04-06T09:12:27.454Z</time></trkpt><trkpt lat="45.57402" lon="8.6652583"><ele>191.0</ele><time>2026-04-06T09:12:29.464Z</time></trkpt><trkpt lat="45.57404" lon="8.66535"><ele>191.0</ele><time>2026-04-06T09:12:31.462Z</time></trkpt><trkpt lat="45.574065" lon="8.6654683"><ele>191.5</ele><time>2026-04-06T09:12:34.46Z</time></trkpt><trkpt lat="45.5740867" lon="8.66557"><ele>192.0</ele><time>2026-04-06T09:12:37.455Z</time></trkpt><trkpt lat="45.574105" lon="8.665675"><ele>192.5</ele><time>2026-04-06T09:12:40.462Z</time></trkpt><trkpt lat="45.5741217" lon="8.6657833"><ele>193.0</ele><time>2026-04-06T09:12:43.462Z</time></trkpt><trkpt lat="45.57414" lon="8.6658833"><ele>193.50000000000003</ele><time>2026-04-06T09:12:46.464Z</time></trkpt><trkpt lat="45.5741567" lon="8.6659767"><ele>194.0</ele><time>2026-04-06T09:12:49.461Z</time></trkpt><trkpt lat="45.5741767" lon="8.6660933"><ele>194.57142857142856</ele><time>2026-04-06T09:12:53.461Z</time></trkpt><trkpt lat="45.574195" lon="8.6661883"><ele>195.14285714285717</ele><time>2026-04-06T09:12:56.454Z</time></trkpt><trkpt lat="45.5742167" lon="8.6662833"><ele>195.71428571428572</ele><time>2026-04-06T09:12:59.464Z</time></trkpt><trkpt lat="45.574235" lon="8.6663833"><ele>196.28571428571428</ele><time>2026-04-06T09:13:02.464Z</time></trkpt><trkpt lat="45.574255" lon="8.666475"><ele>196.85714285714283</ele><time>2026-04-06T09:13:05.46Z</time></trkpt><trkpt lat="45.5742783" lon="8.6665667"><ele>197.42857142857144</ele><time>2026-04-06T09:13:09.461Z</time></trkpt><trkpt lat="45.57432" lon="8.6666983"><ele>198.0</ele><time>2026-04-06T09:14:16.463Z</time></trkpt><trkpt lat="45.574335" lon="8.6668167"><ele>198.0</ele><time>2026-04-06T09:14:20.462Z</time></trkpt><trkpt lat="45.5743467" lon="8.6669317"><ele>198.0</ele><time>2026-04-06T09:14:23.462Z</time></trkpt><trkpt lat="45.5743617" lon="8.6670383"><ele>198.0</ele><time>2026-04-06T09:14:27.461Z</time></trkpt><trkpt lat="45.574375" lon="8.6671383"><ele>198.0</ele><time>2026-04-06T09:14:31.462Z</time></trkpt><trkpt lat="45.5743883" lon="8.667235"><ele>198.0</ele><time>2026-04-06T09:14:35.464Z</time></trkpt><trkpt lat="45.57441" lon="8.6673483"><ele>198.0</ele><time>2026-04-06T09:14:38.464Z</time></trkpt><trkpt lat="45.5744183" lon="8.6674417"><ele>198.0</ele><time>2026-04-06T09:14:41.462Z</time></trkpt><trkpt lat="45.574425" lon="8.66755"><ele>198.0</ele><time>2026-04-06T09:14:45.461Z</time></trkpt><trkpt lat="45.57441" lon="8.6676483"><ele>198.0</ele><time>2026-04-06T09:14:51.459Z</time></trkpt><trkpt lat="45.5744267" lon="8.66775"><ele>198.0</ele><time>2026-04-06T09:14:55.463Z</time></trkpt><trkpt lat="45.5744517" lon="8.6678517"><ele>198.0</ele><time>2026-04-06T09:14:59.454Z</time></trkpt><trkpt lat="45.574475" lon="8.667955"><ele>198.0</ele><time>2026-04-06T09:15:02.462Z</time></trkpt><trkpt lat="45.5744967" lon="8.668055"><ele>198.0</ele><time>2026-04-06T09:15:06.462Z</time></trkpt><trkpt lat="45.574505" lon="8.66815"><ele>198.0</ele><time>2026-04-06T09:15:09.462Z</time></trkpt><trkpt lat="45.5745267" lon="8.6682533"><ele>198.0</ele><time>2026-04-06T09:15:12.454Z</time></trkpt><trkpt lat="45.5745367" lon="8.66835"><ele>198.0</ele><time>2026-04-06T09:15:17.464Z</time></trkpt><trkpt lat="45.574555" lon="8.6684417"><ele>198.0</ele><time>2026-04-06T09:15:21.463Z</time></trkpt><trkpt lat="45.574575" lon="8.6685467"><ele>198.0</ele><time>2026-04-06T09:15:24.463Z</time></trkpt><trkpt lat="45.5745983" lon="8.6686533"><ele>198.0</ele><time>2026-04-06T09:15:28.463Z</time></trkpt><trkpt lat="45.57461" lon="8.668755"><ele>198.0</ele><time>2026-04-06T09:15:33.457Z</time></trkpt><trkpt lat="45.5746233" lon="8.6688483"><ele>198.0</ele><time>2026-04-06T09:15:36.461Z</time></trkpt><trkpt lat="45.5746317" lon="8.6689617"><ele>198.0</ele><time>2026-04-06T09:15:39.468Z</time></trkpt><trkpt lat="45.5746367" lon="8.6690583"><ele>198.0</ele><time>2026-04-06T09:15:43.461Z</time></trkpt><trkpt lat="45.5746417" lon="8.6691633"><ele>198.0</ele><time>2026-04-06T09:15:46.465Z</time></trkpt><trkpt lat="45.574645" lon="8.669255"><ele>198.0</ele><time>2026-04-06T09:15:48.463Z</time></trkpt><trkpt lat="45.574635" lon="8.66936"><ele>198.0</ele><time>2026-04-06T09:15:53.464Z</time></trkpt><trkpt lat="45.57461" lon="8.6694483"><ele>198.0</ele><time>2026-04-06T09:15:57.464Z</time></trkpt><trkpt lat="45.5745967" lon="8.6695517"><ele>198.0</ele><time>2026-04-06T09:16:55.465Z</time></trkpt><trkpt lat="45.57464" lon="8.6694283"><ele>198.0</ele><time>2026-04-06T09:16:58.464Z</time></trkpt><trkpt lat="45.5746833" lon="8.66935"><ele>198.0</ele><time>2026-04-06T09:17:01.464Z</time></trkpt><trkpt lat="45.5747367" lon="8.6692683"><ele>198.0</ele><time>2026-04-06T09:17:04.463Z</time></trkpt><trkpt lat="45.5747983" lon="8.6691883"><ele>198.0</ele><time>2026-04-06T09:17:07.464Z</time></trkpt><trkpt lat="45.574875" lon="8.66915"><ele>198.0</ele><time>2026-04-06T09:17:10.456Z</time></trkpt><trkpt lat="45.57494" lon="8.6691283"><ele>198.0</ele><time>2026-04-06T09:17:13.467Z</time></trkpt><trkpt lat="45.5750033" lon="8.6691167"><ele>198.0</ele><time>2026-04-06T09:17:17.464Z</time></trkpt><trkpt lat="45.575085" lon="8.66912"><ele>198.0</ele><time>2026-04-06T09:19:13.462Z</time></trkpt><trkpt lat="45.5751333" lon="8.6691867"><ele>198.0</ele><time>2026-04-06T09:19:20.46Z</time></trkpt><trkpt lat="45.5751867" lon="8.6692617"><ele>198.0</ele><time>2026-04-06T09:19:24.463Z</time></trkpt><trkpt lat="45.5752267" lon="8.6693367"><ele>198.0</ele><time>2026-04-06T09:19:29.465Z</time></trkpt><trkpt lat="45.5751583" lon="8.6692783"><ele>198.0</ele><time>2026-04-06T09:19:41.463Z</time></trkpt><trkpt lat="45.5750967" lon="8.669205"><ele>198.0</ele><time>2026-04-06T09:19:45.462Z</time></trkpt><trkpt lat="45.5750433" lon="8.669145"><ele>198.0</ele><time>2026-04-06T09:19:50.464Z</time></trkpt><trkpt lat="45.57497" lon="8.6691733"><ele>198.0</ele><time>2026-04-06T09:19:55.461Z</time></trkpt><trkpt lat="45.5749" lon="8.6692117"><ele>198.0</ele><time>2026-04-06T09:20:01.458Z</time></trkpt><trkpt lat="45.5748367" lon="8.6692383"><ele>198.0</ele><time>2026-04-06T09:20:03.465Z</time></trkpt><trkpt lat="45.5747583" lon="8.6692883"><ele>198.0</ele><time>2026-04-06T09:20:05.462Z</time></trkpt><trkpt lat="45.5746967" lon="8.66935"><ele>198.0</ele><time>2026-04-06T09:20:07.461Z</time></trkpt><trkpt lat="45.5746417" lon="8.6694083"><ele>198.0</ele><time>2026-04-06T09:20:11.461Z</time></trkpt><trkpt lat="45.574595" lon="8.669515"><ele>197.57142857142858</ele><time>2026-04-06T09:20:15.462Z</time></trkpt><trkpt lat="45.574555" lon="8.6696"><ele>197.14285714285714</ele><time>2026-04-06T09:20:17.461Z</time></trkpt><trkpt lat="45.574525" lon="8.6696883"><ele>196.71428571428572</ele><time>2026-04-06T09:20:19.461Z</time></trkpt><trkpt lat="45.5744983" lon="8.6697717"><ele>196.28571428571428</ele><time>2026-04-06T09:20:21.463Z</time></trkpt><trkpt lat="45.5745133" lon="8.6698617"><ele>195.85714285714283</ele><time>2026-04-06T09:20:29.462Z</time></trkpt><trkpt lat="45.5745284" lon="8.6697675"><ele>195.42857142857142</ele><time>2026-04-06T09:21:34.494Z</time></trkpt><trkpt lat="45.5745741" lon="8.6697054"><ele>195.0</ele><time>2026-04-06T09:21:50.464Z</time></trkpt><trkpt lat="45.5746025" lon="8.6696245"><ele>195.0</ele><time>2026-04-06T09:21:56.521Z</time></trkpt><trkpt lat="45.5746757" lon="8.6696078"><ele>195.0</ele><time>2026-04-06T09:22:40.533Z</time></trkpt><trkpt lat="45.5746189" lon="8.6697407"><ele>195.0</ele><time>2026-04-06T09:22:58.502Z</time></trkpt><trkpt lat="45.5745841" lon="8.6698158"><ele>195.0</ele><time>2026-04-06T09:23:02.461Z</time></trkpt><trkpt lat="45.5745061" lon="8.6698584"><ele>195.0</ele><time>2026-04-06T09:25:25.398Z</time></trkpt><trkpt lat="45.5745264" lon="8.669745"><ele>195.0</ele><time>2026-04-06T09:25:59.477Z</time></trkpt><trkpt lat="45.5745856" lon="8.6696668"><ele>195.0</ele><time>2026-04-06T09:26:02.528Z</time></trkpt><trkpt lat="45.5746222" lon="8.6695904"><ele>195.0</ele><time>2026-04-06T09:26:12.522Z</time></trkpt><trkpt lat="45.5746033" lon="8.669685"><ele>195.0</ele><time>2026-04-06T09:27:08.463Z</time></trkpt><trkpt lat="45.5745567" lon="8.6697567"><ele>195.0</ele><time>2026-04-06T09:27:13.461Z</time></trkpt><trkpt lat="45.5745459" lon="8.6698581"><ele>195.0</ele><time>2026-04-06T09:29:45.524Z</time></trkpt><trkpt lat="45.5744707" lon="8.6698696"><ele>195.0</ele><time>2026-04-06T09:31:31.523Z</time></trkpt><trkpt lat="45.574539" lon="8.6698682"><ele>195.0</ele><time>2026-04-06T09:32:26.505Z</time></trkpt><trkpt lat="45.574607" lon="8.670031"><ele>195.0</ele><time>2026-04-06T09:33:01.534Z</time></trkpt><trkpt lat="45.5746444" lon="8.6701112"><ele>195.0</ele><time>2026-04-06T09:33:07.503Z</time></trkpt><trkpt lat="45.5746821" lon="8.6702011"><ele>195.0</ele><time>2026-04-06T09:33:12.538Z</time></trkpt><trkpt lat="45.57471" lon="8.670302"><ele>195.0</ele><time>2026-04-06T09:33:16.475Z</time></trkpt><trkpt lat="45.5747112" lon="8.6704113"><ele>195.0</ele><time>2026-04-06T09:33:21.523Z</time></trkpt><trkpt lat="45.5747148" lon="8.6705033"><ele>195.0</ele><time>2026-04-06T09:33:24.463Z</time></trkpt><trkpt lat="45.5747269" lon="8.6705929"><ele>195.0</ele><time>2026-04-06T09:33:28.488Z</time></trkpt><trkpt lat="45.5747437" lon="8.6706862"><ele>194.33333333333334</ele><time>2026-04-06T09:33:32.526Z</time></trkpt><trkpt lat="45.5747474" lon="8.670777"><ele>193.66666666666666</ele><time>2026-04-06T09:33:35.455Z</time></trkpt><trkpt lat="45.5747283" lon="8.6708633"><ele>193.0</ele><time>2026-04-06T09:33:38.467Z</time></trkpt><trkpt lat="45.5747317" lon="8.67096"><ele>192.33333333333331</ele><time>2026-04-06T09:33:40.462Z</time></trkpt><trkpt lat="45.57474" lon="8.671065"><ele>191.66666666666666</ele><time>2026-04-06T09:33:43.455Z</time></trkpt><trkpt lat="45.57478" lon="8.6711467"><ele>191.0</ele><time>2026-04-06T09:33:46.464Z</time></trkpt><trkpt lat="45.574885" lon="8.6712867"><ele>190.66666666666666</ele><time>2026-04-06T09:33:47.463Z</time></trkpt><trkpt lat="45.5748483" lon="8.6713833"><ele>190.33333333333331</ele><time>2026-04-06T09:34:16.459Z</time></trkpt><trkpt lat="45.5748183" lon="8.671495"><ele>190.0</ele><time>2026-04-06T09:34:20.463Z</time></trkpt><trkpt lat="45.5747983" lon="8.6716183"><ele>189.66666666666666</ele><time>2026-04-06T09:34:23.463Z</time></trkpt><trkpt lat="45.57479" lon="8.6717167"><ele>189.33333333333334</ele><time>2026-04-06T09:34:27.462Z</time></trkpt><trkpt lat="45.57479" lon="8.6718217"><ele>189.0</ele><time>2026-04-06T09:34:30.465Z</time></trkpt><trkpt lat="45.5748067" lon="8.6719317"><ele>188.83333333333334</ele><time>2026-04-06T09:34:33.462Z</time></trkpt><trkpt lat="45.57482" lon="8.672045"><ele>188.66666666666666</ele><time>2026-04-06T09:34:36.462Z</time></trkpt><trkpt lat="45.57481" lon="8.672165"><ele>188.5</ele><time>2026-04-06T09:34:39.462Z</time></trkpt><trkpt lat="45.5748017" lon="8.67228"><ele>188.33333333333331</ele><time>2026-04-06T09:34:42.461Z</time></trkpt><trkpt lat="45.5747917" lon="8.672395"><ele>188.16666666666666</ele><time>2026-04-06T09:34:45.462Z</time></trkpt><trkpt lat="45.5747767" lon="8.67249"><ele>188.0</ele><time>2026-04-06T09:34:48.465Z</time></trkpt><trkpt lat="45.574755" lon="8.6725833"><ele>188.0</ele><time>2026-04-06T09:34:51.465Z</time></trkpt><trkpt lat="45.5747383" lon="8.6726717"><ele>188.0</ele><time>2026-04-06T09:34:53.462Z</time></trkpt><trkpt lat="45.5747133" lon="8.67279"><ele>188.0</ele><time>2026-04-06T09:34:56.464Z</time></trkpt><trkpt lat="45.5746833" lon="8.6728917"><ele>188.0</ele><time>2026-04-06T09:34:59.463Z</time></trkpt><trkpt lat="45.5746467" lon="8.673"><ele>188.0</ele><time>2026-04-06T09:35:02.466Z</time></trkpt><trkpt lat="45.5746183" lon="8.673115"><ele>188.0</ele><time>2026-04-06T09:35:05.466Z</time></trkpt><trkpt lat="45.5745917" lon="8.6732267"><ele>188.0</ele><time>2026-04-06T09:35:08.466Z</time></trkpt><trkpt lat="45.574585" lon="8.673355"><ele>188.0</ele><time>2026-04-06T09:35:11.463Z</time></trkpt><trkpt lat="45.57458" lon="8.6734583"><ele>188.0</ele><time>2026-04-06T09:35:15.462Z</time></trkpt><trkpt lat="45.574585" lon="8.67362"><ele>188.0</ele><time>2026-04-06T09:35:38.454Z</time></trkpt><trkpt lat="45.5745283" lon="8.6736617"><ele>188.0</ele><time>2026-04-06T09:35:42.462Z</time></trkpt><trkpt lat="45.57447" lon="8.673725"><ele>188.0</ele><time>2026-04-06T09:35:48.461Z</time></trkpt><trkpt lat="45.5744217" lon="8.673795"><ele>188.57142857142856</ele><time>2026-04-06T09:35:53.462Z</time></trkpt><trkpt lat="45.5743917" lon="8.6738817"><ele>189.14285714285714</ele><time>2026-04-06T09:35:57.463Z</time></trkpt><trkpt lat="45.5743583" lon="8.6739767"><ele>189.71428571428572</ele><time>2026-04-06T09:36:01.464Z</time></trkpt><trkpt lat="45.5743233" lon="8.674065"><ele>190.28571428571428</ele><time>2026-04-06T09:36:05.463Z</time></trkpt><trkpt lat="45.5742867" lon="8.6741517"><ele>190.85714285714286</ele><time>2026-04-06T09:36:10.459Z</time></trkpt><trkpt lat="45.5742517" lon="8.674245"><ele>191.42857142857142</ele><time>2026-04-06T09:36:14.455Z</time></trkpt><trkpt lat="45.5742217" lon="8.6743267"><ele>192.0</ele><time>2026-04-06T09:36:17.463Z</time></trkpt><trkpt lat="45.57419" lon="8.6744183"><ele>191.28571428571428</ele><time>2026-04-06T09:36:20.458Z</time></trkpt><trkpt lat="45.5741567" lon="8.6745217"><ele>190.57142857142856</ele><time>2026-04-06T09:36:24.464Z</time></trkpt><trkpt lat="45.57413" lon="8.6746117"><ele>189.85714285714283</ele><time>2026-04-06T09:36:28.465Z</time></trkpt><trkpt lat="45.5741083" lon="8.6747067"><ele>189.14285714285714</ele><time>2026-04-06T09:36:33.465Z</time></trkpt><trkpt lat="45.5740633" lon="8.67477"><ele>188.42857142857144</ele><time>2026-04-06T09:36:36.461Z</time></trkpt><trkpt lat="45.5740117" lon="8.6748517"><ele>187.7142857142857</ele><time>2026-04-06T09:36:40.456Z</time></trkpt><trkpt lat="45.5739733" lon="8.67495"><ele>187.0</ele><time>2026-04-06T09:36:43.464Z</time></trkpt><trkpt lat="45.5739317" lon="8.675045"><ele>187.0</ele><time>2026-04-06T09:36:46.462Z</time></trkpt><trkpt lat="45.5738783" lon="8.6751267"><ele>187.0</ele><time>2026-04-06T09:36:49.462Z</time></trkpt><trkpt lat="45.5738267" lon="8.6751933"><ele>187.0</ele><time>2026-04-06T09:36:52.462Z</time></trkpt><trkpt lat="45.5737617" lon="8.6752617"><ele>187.0</ele><time>2026-04-06T09:36:56.465Z</time></trkpt><trkpt lat="45.5737167" lon="8.6753267"><ele>187.0</ele><time>2026-04-06T09:36:59.462Z</time></trkpt><trkpt lat="45.5736833" lon="8.6754033"><ele>187.0</ele><time>2026-04-06T09:37:02.455Z</time></trkpt><trkpt lat="45.5736483" lon="8.6754917"><ele>187.0</ele><time>2026-04-06T09:37:06.464Z</time></trkpt><trkpt lat="45.5736283" lon="8.6756017"><ele>186.57142857142856</ele><time>2026-04-06T09:37:10.462Z</time></trkpt><trkpt lat="45.57362" lon="8.6756967"><ele>186.14285714285717</ele><time>2026-04-06T09:37:14.467Z</time></trkpt><trkpt lat="45.57363" lon="8.6757867"><ele>185.71428571428572</ele><time>2026-04-06T09:37:19.463Z</time></trkpt><trkpt lat="45.5736633" lon="8.6758633"><ele>185.28571428571428</ele><time>2026-04-06T09:37:23.464Z</time></trkpt><trkpt lat="45.573685" lon="8.6759583"><ele>184.85714285714283</ele><time>2026-04-06T09:37:27.461Z</time></trkpt><trkpt lat="45.5737" lon="8.6760483"><ele>184.42857142857144</ele><time>2026-04-06T09:37:32.465Z</time></trkpt><trkpt lat="45.5737167" lon="8.6761433"><ele>184.0</ele><time>2026-04-06T09:37:38.467Z</time></trkpt><trkpt lat="45.5737333" lon="8.6762433"><ele>183.71428571428572</ele><time>2026-04-06T09:37:46.454Z</time></trkpt><trkpt lat="45.57374" lon="8.676335"><ele>183.42857142857142</ele><time>2026-04-06T09:37:51.454Z</time></trkpt><trkpt lat="45.5737433" lon="8.6764433"><ele>183.14285714285714</ele><time>2026-04-06T09:37:56.462Z</time></trkpt><trkpt lat="45.5737917" lon="8.676545"><ele>182.85714285714286</ele><time>2026-04-06T09:38:00.465Z</time></trkpt><trkpt lat="45.5738417" lon="8.6766033"><ele>182.57142857142856</ele><time>2026-04-06T09:38:06.462Z</time></trkpt><trkpt lat="45.5739067" lon="8.6766217"><ele>182.28571428571428</ele><time>2026-04-06T09:38:10.462Z</time></trkpt><trkpt lat="45.5739833" lon="8.6766417"><ele>182.0</ele><time>2026-04-06T09:38:14.469Z</time></trkpt><trkpt lat="45.5740567" lon="8.6766417"><ele>182.0</ele><time>2026-04-06T09:38:17.464Z</time></trkpt><trkpt lat="45.5741267" lon="8.6766283"><ele>182.0</ele><time>2026-04-06T09:38:21.464Z</time></trkpt><trkpt lat="45.5741917" lon="8.6765967"><ele>182.0</ele><time>2026-04-06T09:38:27.458Z</time></trkpt><trkpt lat="45.5742183" lon="8.6765083"><ele>182.0</ele><time>2026-04-06T09:38:34.464Z</time></trkpt><trkpt lat="45.5742467" lon="8.67642"><ele>182.0</ele><time>2026-04-06T09:38:38.465Z</time></trkpt><trkpt lat="45.5742983" lon="8.67635"><ele>182.0</ele><time>2026-04-06T09:38:42.46Z</time></trkpt><trkpt lat="45.574255" lon="8.6764433"><ele>182.0</ele><time>2026-04-06T09:41:02.463Z</time></trkpt><trkpt lat="45.5742117" lon="8.6765117"><ele>182.0</ele><time>2026-04-06T09:41:07.464Z</time></trkpt><trkpt lat="45.57414" lon="8.6765433"><ele>182.0</ele><time>2026-04-06T09:41:12.463Z</time></trkpt><trkpt lat="45.5740633" lon="8.67657"><ele>182.0</ele><time>2026-04-06T09:41:16.454Z</time></trkpt><trkpt lat="45.5739833" lon="8.67657"><ele>182.0</ele><time>2026-04-06T09:41:19.463Z</time></trkpt><trkpt lat="45.5739217" lon="8.67655"><ele>182.0</ele><time>2026-04-06T09:41:21.456Z</time></trkpt><trkpt lat="45.57385" lon="8.6765283"><ele>182.0</ele><time>2026-04-06T09:41:24.461Z</time></trkpt><trkpt lat="45.5737817" lon="8.6764683"><ele>182.0</ele><time>2026-04-06T09:41:27.461Z</time></trkpt><trkpt lat="45.5737533" lon="8.676365"><ele>182.0</ele><time>2026-04-06T09:41:31.463Z</time></trkpt><trkpt lat="45.57382" lon="8.676335"><ele>182.0</ele><time>2026-04-06T09:48:20.464Z</time></trkpt><trkpt lat="45.5738117" lon="8.6762317"><ele>182.0</ele><time>2026-04-06T09:48:25.463Z</time></trkpt><trkpt lat="45.5737767" lon="8.6761567"><ele>182.0</ele><time>2026-04-06T09:48:31.461Z</time></trkpt><trkpt lat="45.5737483" lon="8.6760683"><ele>182.0</ele><time>2026-04-06T09:48:36.464Z</time></trkpt><trkpt lat="45.57371" lon="8.675975"><ele>182.0</ele><time>2026-04-06T09:48:41.463Z</time></trkpt><trkpt lat="45.5736517" lon="8.6760383"><ele>182.14285714285714</ele><time>2026-04-06T09:48:47.457Z</time></trkpt><trkpt lat="45.573625" lon="8.6761233"><ele>182.28571428571428</ele><time>2026-04-06T09:48:53.466Z</time></trkpt><trkpt lat="45.57362" lon="8.6762367"><ele>182.42857142857144</ele><time>2026-04-06T09:48:59.454Z</time></trkpt><trkpt lat="45.5736067" lon="8.6763417"><ele>182.57142857142856</ele><time>2026-04-06T09:49:04.469Z</time></trkpt><trkpt lat="45.5736083" lon="8.6764333"><ele>182.71428571428572</ele><time>2026-04-06T09:49:07.454Z</time></trkpt><trkpt lat="45.5736033" lon="8.6765467"><ele>182.85714285714286</ele><time>2026-04-06T09:49:11.466Z</time></trkpt><trkpt lat="45.5736217" lon="8.676655"><ele>183.0</ele><time>2026-04-06T09:49:17.464Z</time></trkpt><trkpt lat="45.57362" lon="8.6767617"><ele>183.0</ele><time>2026-04-06T09:49:21.463Z</time></trkpt><trkpt lat="45.5736183" lon="8.6768683"><ele>183.0</ele><time>2026-04-06T09:49:25.463Z</time></trkpt><trkpt lat="45.5736067" lon="8.676975"><ele>183.0</ele><time>2026-04-06T09:49:29.462Z</time></trkpt><trkpt lat="45.5735733" lon="8.67706"><ele>183.0</ele><time>2026-04-06T09:49:34.463Z</time></trkpt><trkpt lat="45.5735417" lon="8.677145"><ele>183.0</ele><time>2026-04-06T09:49:38.466Z</time></trkpt><trkpt lat="45.5735267" lon="8.67724"><ele>183.0</ele><time>2026-04-06T09:49:42.462Z</time></trkpt><trkpt lat="45.5734933" lon="8.677325"><ele>183.0</ele><time>2026-04-06T09:49:48.453Z</time></trkpt><trkpt lat="45.573475" lon="8.6774183"><ele>183.14285714285714</ele><time>2026-04-06T09:49:54.459Z</time></trkpt><trkpt lat="45.5734" lon="8.6774517"><ele>183.28571428571428</ele><time>2026-04-06T09:50:06.453Z</time></trkpt><trkpt lat="45.5733267" lon="8.6774683"><ele>183.42857142857144</ele><time>2026-04-06T09:50:11.462Z</time></trkpt><trkpt lat="45.57325" lon="8.6774783"><ele>183.57142857142856</ele><time>2026-04-06T09:50:15.461Z</time></trkpt><trkpt lat="45.5731817" lon="8.6774817"><ele>183.7142857142857</ele><time>2026-04-06T09:50:19.461Z</time></trkpt><trkpt lat="45.5731117" lon="8.6774767"><ele>183.85714285714286</ele><time>2026-04-06T09:50:24.462Z</time></trkpt><trkpt lat="45.5730367" lon="8.6774683"><ele>184.0</ele><time>2026-04-06T09:50:29.456Z</time></trkpt><trkpt lat="45.5729617" lon="8.6774717"><ele>184.0</ele><time>2026-04-06T09:50:33.457Z</time></trkpt><trkpt lat="45.5728967" lon="8.67747"><ele>184.0</ele><time>2026-04-06T09:50:37.456Z</time></trkpt><trkpt lat="45.57283" lon="8.67747"><ele>184.0</ele><time>2026-04-06T09:50:41.461Z</time></trkpt><trkpt lat="45.572765" lon="8.67746"><ele>184.0</ele><time>2026-04-06T09:50:45.462Z</time></trkpt><trkpt lat="45.5726883" lon="8.6774633"><ele>184.0</ele><time>2026-04-06T09:50:50.464Z</time></trkpt><trkpt lat="45.5726167" lon="8.677465"><ele>184.0</ele><time>2026-04-06T09:50:54.461Z</time></trkpt><trkpt lat="45.57255" lon="8.6774683"><ele>184.0</ele><time>2026-04-06T09:50:58.461Z</time></trkpt><trkpt lat="45.5724783" lon="8.67746"><ele>183.85714285714286</ele><time>2026-04-06T09:51:02.463Z</time></trkpt><trkpt lat="45.5724033" lon="8.677455"><ele>183.7142857142857</ele><time>2026-04-06T09:51:06.464Z</time></trkpt><trkpt lat="45.5723333" lon="8.6774567"><ele>183.57142857142856</ele><time>2026-04-06T09:51:09.46Z</time></trkpt><trkpt lat="45.5722583" lon="8.6774567"><ele>183.42857142857144</ele><time>2026-04-06T09:51:12.461Z</time></trkpt><trkpt lat="45.5721917" lon="8.6774567"><ele>183.28571428571428</ele><time>2026-04-06T09:51:15.463Z</time></trkpt><trkpt lat="45.5721167" lon="8.677465"><ele>183.14285714285714</ele><time>2026-04-06T09:51:19.462Z</time></trkpt><trkpt lat="45.5720433" lon="8.67748"><ele>183.0</ele><time>2026-04-06T09:51:23.463Z</time></trkpt><trkpt lat="45.5719767" lon="8.6774833"><ele>183.0</ele><time>2026-04-06T09:51:26.464Z</time></trkpt><trkpt lat="45.5718933" lon="8.6774817"><ele>183.0</ele><time>2026-04-06T09:51:30.461Z</time></trkpt><trkpt lat="45.5718183" lon="8.6774783"><ele>183.0</ele><time>2026-04-06T09:51:34.46Z</time></trkpt><trkpt lat="45.5717483" lon="8.677485"><ele>183.0</ele><time>2026-04-06T09:51:38.465Z</time></trkpt><trkpt lat="45.571675" lon="8.6774933"><ele>183.0</ele><time>2026-04-06T09:51:42.458Z</time></trkpt><trkpt lat="45.5716" lon="8.6775017"><ele>183.0</ele><time>2026-04-06T09:51:46.463Z</time></trkpt><trkpt lat="45.571515" lon="8.6774917"><ele>183.0</ele><time>2026-04-06T09:51:50.463Z</time></trkpt><trkpt lat="45.5714433" lon="8.6774917"><ele>183.0</ele><time>2026-04-06T09:51:53.458Z</time></trkpt><trkpt lat="45.5713783" lon="8.6774867"><ele>183.0</ele><time>2026-04-06T09:51:56.464Z</time></trkpt><trkpt lat="45.5713033" lon="8.6774867"><ele>183.0</ele><time>2026-04-06T09:51:59.461Z</time></trkpt><trkpt lat="45.5712283" lon="8.677475"><ele>183.0</ele><time>2026-04-06T09:52:02.459Z</time></trkpt><trkpt lat="45.57116" lon="8.67747"><ele>183.0</ele><time>2026-04-06T09:52:05.462Z</time></trkpt><trkpt lat="45.5710817" lon="8.6774733"><ele>183.0</ele><time>2026-04-06T09:52:08.466Z</time></trkpt><trkpt lat="45.5710133" lon="8.6774733"><ele>183.0</ele><time>2026-04-06T09:52:11.462Z</time></trkpt><trkpt lat="45.5709417" lon="8.6774767"><ele>183.0</ele><time>2026-04-06T09:52:15.461Z</time></trkpt><trkpt lat="45.57087" lon="8.6774867"><ele>183.0</ele><time>2026-04-06T09:52:20.462Z</time></trkpt><trkpt lat="45.5707917" lon="8.677485"><ele>183.0</ele><time>2026-04-06T09:52:25.464Z</time></trkpt><trkpt lat="45.57072" lon="8.6774833"><ele>183.0</ele><time>2026-04-06T09:52:29.464Z</time></trkpt><trkpt lat="45.5706483" lon="8.6774917"><ele>183.0</ele><time>2026-04-06T09:52:33.453Z</time></trkpt><trkpt lat="45.5705767" lon="8.6775117"><ele>183.0</ele><time>2026-04-06T09:52:37.458Z</time></trkpt><trkpt lat="45.5704967" lon="8.6775033"><ele>183.0</ele><time>2026-04-06T09:52:41.462Z</time></trkpt><trkpt lat="45.5704333" lon="8.6774967"><ele>183.0</ele><time>2026-04-06T09:52:45.461Z</time></trkpt><trkpt lat="45.57036" lon="8.6774883"><ele>183.0</ele><time>2026-04-06T09:52:50.465Z</time></trkpt><trkpt lat="45.5702883" lon="8.6774817"><ele>183.0</ele><time>2026-04-06T09:52:54.462Z</time></trkpt><trkpt lat="45.570205" lon="8.6774767"><ele>183.0</ele><time>2026-04-06T09:52:58.461Z</time></trkpt><trkpt lat="45.570135" lon="8.67747"><ele>183.0</ele><time>2026-04-06T09:53:01.458Z</time></trkpt><trkpt lat="45.5700567" lon="8.6774583"><ele>183.0</ele><time>2026-04-06T09:53:05.46Z</time></trkpt><trkpt lat="45.5699933" lon="8.6774467"><ele>183.16666666666666</ele><time>2026-04-06T09:53:08.463Z</time></trkpt><trkpt lat="45.5699133" lon="8.67743"><ele>183.33333333333334</ele><time>2026-04-06T09:53:12.46Z</time></trkpt><trkpt lat="45.5698533" lon="8.6774"><ele>183.5</ele><time>2026-04-06T09:53:15.463Z</time></trkpt><trkpt lat="45.5698017" lon="8.677305"><ele>183.66666666666669</ele><time>2026-04-06T09:53:19.466Z</time></trkpt><trkpt lat="45.569765" lon="8.67721"><ele>183.83333333333334</ele><time>2026-04-06T09:53:22.462Z</time></trkpt><trkpt lat="45.5697317" lon="8.6771033"><ele>184.0</ele><time>2026-04-06T09:53:25.461Z</time></trkpt><trkpt lat="45.5697017" lon="8.6769833"><ele>184.0</ele><time>2026-04-06T09:53:28.462Z</time></trkpt><trkpt lat="45.5696717" lon="8.676855"><ele>184.0</ele><time>2026-04-06T09:53:31.462Z</time></trkpt><trkpt lat="45.5696567" lon="8.6767467"><ele>184.0</ele><time>2026-04-06T09:53:33.461Z</time></trkpt><trkpt lat="45.5696433" lon="8.676635"><ele>184.0</ele><time>2026-04-06T09:53:35.455Z</time></trkpt><trkpt lat="45.5696333" lon="8.67652"><ele>184.0</ele><time>2026-04-06T09:53:37.461Z</time></trkpt><trkpt lat="45.56962" lon="8.6764117"><ele>184.0</ele><time>2026-04-06T09:53:39.463Z</time></trkpt><trkpt lat="45.56961" lon="8.6763133"><ele>184.0</ele><time>2026-04-06T09:53:41.462Z</time></trkpt><trkpt lat="45.5696017" lon="8.6762167"><ele>184.0</ele><time>2026-04-06T09:53:43.454Z</time></trkpt><trkpt lat="45.5695917" lon="8.676115"><ele>184.0</ele><time>2026-04-06T09:53:45.481Z</time></trkpt><trkpt lat="45.5695817" lon="8.6759867"><ele>184.0</ele><time>2026-04-06T09:53:48.471Z</time></trkpt><trkpt lat="45.56958" lon="8.67587"><ele>184.0</ele><time>2026-04-06T09:53:51.457Z</time></trkpt><trkpt lat="45.5695733" lon="8.675765"><ele>184.0</ele><time>2026-04-06T09:53:54.453Z</time></trkpt><trkpt lat="45.56956" lon="8.6756567"><ele>184.0</ele><time>2026-04-06T09:53:57.454Z</time></trkpt><trkpt lat="45.569545" lon="8.67555"><ele>184.0</ele><time>2026-04-06T09:54:00.462Z</time></trkpt><trkpt lat="45.5695383" lon="8.6754467"><ele>184.0</ele><time>2026-04-06T09:54:03.46Z</time></trkpt><trkpt lat="45.5695283" lon="8.67534"><ele>184.0</ele><time>2026-04-06T09:54:06.459Z</time></trkpt><trkpt lat="45.5695183" lon="8.6752233"><ele>184.0</ele><time>2026-04-06T09:54:09.458Z</time></trkpt><trkpt lat="45.56951" lon="8.6751033"><ele>184.0</ele><time>2026-04-06T09:54:12.457Z</time></trkpt><trkpt lat="45.5695" lon="8.6749817"><ele>184.0</ele><time>2026-04-06T09:54:15.454Z</time></trkpt><trkpt lat="45.56949" lon="8.6748567"><ele>184.0</ele><time>2026-04-06T09:54:18.464Z</time></trkpt><trkpt lat="45.569475" lon="8.67473"><ele>184.0</ele><time>2026-04-06T09:54:21.463Z</time></trkpt><trkpt lat="45.5694683" lon="8.67464"><ele>184.0</ele><time>2026-04-06T09:54:23.458Z</time></trkpt><trkpt lat="45.5694567" lon="8.6745167"><ele>184.0</ele><time>2026-04-06T09:54:26.462Z</time></trkpt><trkpt lat="45.569445" lon="8.6743967"><ele>184.0</ele><time>2026-04-06T09:54:29.462Z</time></trkpt><trkpt lat="45.5694333" lon="8.674285"><ele>184.33333333333334</ele><time>2026-04-06T09:54:32.463Z</time></trkpt><trkpt lat="45.5694183" lon="8.6741683"><ele>184.66666666666669</ele><time>2026-04-06T09:54:35.454Z</time></trkpt><trkpt lat="45.5694017" lon="8.674045"><ele>185.0</ele><time>2026-04-06T09:54:38.463Z</time></trkpt><trkpt lat="45.5693867" lon="8.6739133"><ele>185.33333333333334</ele><time>2026-04-06T09:54:41.462Z</time></trkpt><trkpt lat="45.56938" lon="8.6737817"><ele>185.66666666666666</ele><time>2026-04-06T09:54:44.466Z</time></trkpt><trkpt lat="45.5693783" lon="8.673655"><ele>186.0</ele><time>2026-04-06T09:54:47.461Z</time></trkpt><trkpt lat="45.569375" lon="8.67353"><ele>185.42857142857144</ele><time>2026-04-06T09:54:50.465Z</time></trkpt><trkpt lat="45.5693717" lon="8.6734067"><ele>184.85714285714286</ele><time>2026-04-06T09:54:53.458Z</time></trkpt><trkpt lat="45.5693633" lon="8.67329"><ele>184.28571428571428</ele><time>2026-04-06T09:54:56.462Z</time></trkpt><trkpt lat="45.5693483" lon="8.6731917"><ele>183.71428571428572</ele><time>2026-04-06T09:54:59.461Z</time></trkpt><trkpt lat="45.56934" lon="8.6731017"><ele>183.14285714285714</ele><time>2026-04-06T09:55:02.462Z</time></trkpt><trkpt lat="45.5693283" lon="8.672995"><ele>182.57142857142858</ele><time>2026-04-06T09:55:05.462Z</time></trkpt><trkpt lat="45.569305" lon="8.6729017"><ele>182.0</ele><time>2026-04-06T09:55:08.465Z</time></trkpt><trkpt lat="45.5692783" lon="8.67281"><ele>182.0</ele><time>2026-04-06T09:55:11.463Z</time></trkpt><trkpt lat="45.56925" lon="8.672695"><ele>182.0</ele><time>2026-04-06T09:55:14.464Z</time></trkpt><trkpt lat="45.5692233" lon="8.672595"><ele>182.0</ele><time>2026-04-06T09:55:17.463Z</time></trkpt><trkpt lat="45.5692033" lon="8.6724867"><ele>182.0</ele><time>2026-04-06T09:55:20.463Z</time></trkpt><trkpt lat="45.5691733" lon="8.6723783"><ele>182.0</ele><time>2026-04-06T09:55:23.461Z</time></trkpt><trkpt lat="45.5691433" lon="8.6722617"><ele>182.0</ele><time>2026-04-06T09:55:26.465Z</time></trkpt><trkpt lat="45.5691133" lon="8.6721567"><ele>182.0</ele><time>2026-04-06T09:55:29.463Z</time></trkpt><trkpt lat="45.5690833" lon="8.6720483"><ele>182.0</ele><time>2026-04-06T09:55:32.456Z</time></trkpt><trkpt lat="45.5690517" lon="8.6719183"><ele>182.0</ele><time>2026-04-06T09:55:35.46Z</time></trkpt><trkpt lat="45.5690233" lon="8.6718217"><ele>182.0</ele><time>2026-04-06T09:55:37.456Z</time></trkpt><trkpt lat="45.5689967" lon="8.6717233"><ele>182.0</ele><time>2026-04-06T09:55:39.459Z</time></trkpt><trkpt lat="45.5689683" lon="8.6716283"><ele>182.0</ele><time>2026-04-06T09:55:41.463Z</time></trkpt><trkpt lat="45.5689483" lon="8.6715383"><ele>182.0</ele><time>2026-04-06T09:55:43.464Z</time></trkpt><trkpt lat="45.568925" lon="8.67141"><ele>182.0</ele><time>2026-04-06T09:55:46.46Z</time></trkpt><trkpt lat="45.568905" lon="8.6712983"><ele>182.0</ele><time>2026-04-06T09:55:49.454Z</time></trkpt><trkpt lat="45.568885" lon="8.67121"><ele>182.0</ele><time>2026-04-06T09:55:52.461Z</time></trkpt><trkpt lat="45.5688717" lon="8.6711033"><ele>182.0</ele><time>2026-04-06T09:55:56.465Z</time></trkpt><trkpt lat="45.56886" lon="8.670995"><ele>182.0</ele><time>2026-04-06T09:56:01.461Z</time></trkpt><trkpt lat="45.5688633" lon="8.6708983"><ele>182.85714285714286</ele><time>2026-04-06T09:56:06.462Z</time></trkpt><trkpt lat="45.5688717" lon="8.6707933"><ele>183.71428571428572</ele><time>2026-04-06T09:56:11.461Z</time></trkpt><trkpt lat="45.5688867" lon="8.6706933"><ele>184.57142857142856</ele><time>2026-04-06T09:56:16.461Z</time></trkpt><trkpt lat="45.568885" lon="8.6705933"><ele>185.42857142857144</ele><time>2026-04-06T09:56:22.462Z</time></trkpt><trkpt lat="45.5688883" lon="8.6704983"><ele>186.28571428571428</ele><time>2026-04-06T09:56:28.463Z</time></trkpt><trkpt lat="45.5689033" lon="8.6704"><ele>187.14285714285714</ele><time>2026-04-06T09:56:34.462Z</time></trkpt><trkpt lat="45.5688917" lon="8.670305"><ele>188.0</ele><time>2026-04-06T09:56:40.463Z</time></trkpt><trkpt lat="45.5688883" lon="8.6702133"><ele>188.85714285714286</ele><time>2026-04-06T09:56:45.463Z</time></trkpt><trkpt lat="45.5688967" lon="8.6701083"><ele>189.71428571428572</ele><time>2026-04-06T09:56:51.461Z</time></trkpt><trkpt lat="45.5688933" lon="8.6700183"><ele>190.57142857142856</ele><time>2026-04-06T09:56:56.463Z</time></trkpt><trkpt lat="45.5688967" lon="8.6699217"><ele>191.42857142857144</ele><time>2026-04-06T09:57:01.463Z</time></trkpt><trkpt lat="45.568895" lon="8.66982"><ele>192.2857142857143</ele><time>2026-04-06T09:57:06.463Z</time></trkpt><trkpt lat="45.5688783" lon="8.6697267"><ele>193.14285714285714</ele><time>2026-04-06T09:57:11.462Z</time></trkpt><trkpt lat="45.5688817" lon="8.6696367"><ele>194.0</ele><time>2026-04-06T09:57:15.462Z</time></trkpt><trkpt lat="45.5688933" lon="8.6695267"><ele>193.85714285714286</ele><time>2026-04-06T09:57:20.467Z</time></trkpt><trkpt lat="45.5688967" lon="8.6694317"><ele>193.71428571428572</ele><time>2026-04-06T09:57:24.462Z</time></trkpt><trkpt lat="45.5688983" lon="8.669335"><ele>193.57142857142858</ele><time>2026-04-06T09:57:28.462Z</time></trkpt><trkpt lat="45.5688933" lon="8.6692217"><ele>193.42857142857144</ele><time>2026-04-06T09:57:33.462Z</time></trkpt><trkpt lat="45.5688867" lon="8.6691283"><ele>193.28571428571428</ele><time>2026-04-06T09:57:36.461Z</time></trkpt><trkpt lat="45.568885" lon="8.669035"><ele>193.14285714285717</ele><time>2026-04-06T09:57:39.453Z</time></trkpt><trkpt lat="45.56888" lon="8.6689433"><ele>193.0</ele><time>2026-04-06T09:57:42.46Z</time></trkpt><trkpt lat="45.5688733" lon="8.6688517"><ele>193.00000000000003</ele><time>2026-04-06T09:57:45.463Z</time></trkpt><trkpt lat="45.5688633" lon="8.6687417"><ele>193.0</ele><time>2026-04-06T09:57:49.463Z</time></trkpt><trkpt lat="45.568855" lon="8.6686417"><ele>193.0</ele><time>2026-04-06T09:57:53.464Z</time></trkpt><trkpt lat="45.5688383" lon="8.66854"><ele>193.0</ele><time>2026-04-06T09:57:58.463Z</time></trkpt><trkpt lat="45.5688217" lon="8.6684467"><ele>193.0</ele><time>2026-04-06T09:58:02.465Z</time></trkpt><trkpt lat="45.5688083" lon="8.668355"><ele>193.00000000000003</ele><time>2026-04-06T09:58:05.461Z</time></trkpt><trkpt lat="45.568795" lon="8.66825"><ele>193.0</ele><time>2026-04-06T09:58:08.466Z</time></trkpt><trkpt lat="45.56878" lon="8.668145"><ele>192.71428571428572</ele><time>2026-04-06T09:58:11.461Z</time></trkpt><trkpt lat="45.5687633" lon="8.6680483"><ele>192.42857142857144</ele><time>2026-04-06T09:58:14.467Z</time></trkpt><trkpt lat="45.5687533" lon="8.6679467"><ele>192.14285714285717</ele><time>2026-04-06T09:58:17.461Z</time></trkpt><trkpt lat="45.5687383" lon="8.6678417"><ele>191.85714285714286</ele><time>2026-04-06T09:58:20.467Z</time></trkpt><trkpt lat="45.5687217" lon="8.667745"><ele>191.57142857142856</ele><time>2026-04-06T09:58:23.454Z</time></trkpt><trkpt lat="45.5687033" lon="8.667645"><ele>191.2857142857143</ele><time>2026-04-06T09:58:26.467Z</time></trkpt><trkpt lat="45.5686883" lon="8.6675567"><ele>191.0</ele><time>2026-04-06T09:58:29.461Z</time></trkpt><trkpt lat="45.5686733" lon="8.66744"><ele>190.83333333333331</ele><time>2026-04-06T09:58:33.459Z</time></trkpt><trkpt lat="45.5686633" lon="8.6673467"><ele>190.66666666666666</ele><time>2026-04-06T09:58:36.455Z</time></trkpt><trkpt lat="45.5686517" lon="8.6672317"><ele>190.5</ele><time>2026-04-06T09:58:40.463Z</time></trkpt><trkpt lat="45.5686367" lon="8.6671433"><ele>190.33333333333334</ele><time>2026-04-06T09:58:43.46Z</time></trkpt><trkpt lat="45.5686067" lon="8.6669917"><ele>190.16666666666669</ele><time>2026-04-06T09:59:53.461Z</time></trkpt><trkpt lat="45.568595" lon="8.6668767"><ele>190.0</ele><time>2026-04-06T09:59:56.462Z</time></trkpt><trkpt lat="45.5685783" lon="8.666765"><ele>190.0</ele><time>2026-04-06T09:59:59.463Z</time></trkpt><trkpt lat="45.5685667" lon="8.666665"><ele>190.0</ele><time>2026-04-06T10:00:02.463Z</time></trkpt><trkpt lat="45.568545" lon="8.6665417"><ele>190.0</ele><time>2026-04-06T10:00:06.463Z</time></trkpt><trkpt lat="45.5685283" lon="8.666425"><ele>190.0</ele><time>2026-04-06T10:00:09.463Z</time></trkpt><trkpt lat="45.5685167" lon="8.6663217"><ele>190.0</ele><time>2026-04-06T10:00:12.463Z</time></trkpt><trkpt lat="45.5685083" lon="8.6662217"><ele>190.0</ele><time>2026-04-06T10:00:15.464Z</time></trkpt><trkpt lat="45.5684967" lon="8.6661083"><ele>190.28571428571428</ele><time>2026-04-06T10:00:18.463Z</time></trkpt><trkpt lat="45.568485" lon="8.666005"><ele>190.57142857142858</ele><time>2026-04-06T10:00:20.454Z</time></trkpt><trkpt lat="45.5684733" lon="8.6659133"><ele>190.85714285714283</ele><time>2026-04-06T10:00:22.468Z</time></trkpt><trkpt lat="45.5684583" lon="8.6657883"><ele>191.14285714285714</ele><time>2026-04-06T10:00:25.46Z</time></trkpt><trkpt lat="45.5684433" lon="8.66566"><ele>191.42857142857142</ele><time>2026-04-06T10:00:28.461Z</time></trkpt><trkpt lat="45.568435" lon="8.6655683"><ele>191.7142857142857</ele><time>2026-04-06T10:00:30.464Z</time></trkpt><trkpt lat="45.5684283" lon="8.665475"><ele>192.0</ele><time>2026-04-06T10:00:32.464Z</time></trkpt><trkpt lat="45.5684233" lon="8.6653833"><ele>191.5</ele><time>2026-04-06T10:00:34.46Z</time></trkpt><trkpt lat="45.5684167" lon="8.6652633"><ele>191.0</ele><time>2026-04-06T10:00:37.466Z</time></trkpt><trkpt lat="45.5684117" lon="8.6651517"><ele>190.5</ele><time>2026-04-06T10:00:40.462Z</time></trkpt><trkpt lat="45.568405" lon="8.66505"><ele>190.0</ele><time>2026-04-06T10:00:43.463Z</time></trkpt><trkpt lat="45.568405" lon="8.6649383"><ele>189.5</ele><time>2026-04-06T10:00:46.458Z</time></trkpt><trkpt lat="45.5683933" lon="8.6648433"><ele>189.0</ele><time>2026-04-06T10:00:49.46Z</time></trkpt><trkpt lat="45.5683833" lon="8.6647283"><ele>189.0</ele><time>2026-04-06T10:00:52.461Z</time></trkpt><trkpt lat="45.5683717" lon="8.66462"><ele>189.0</ele><time>2026-04-06T10:00:55.463Z</time></trkpt><trkpt lat="45.5683633" lon="8.6645167"><ele>189.0</ele><time>2026-04-06T10:00:58.462Z</time></trkpt><trkpt lat="45.5683533" lon="8.66442"><ele>189.0</ele><time>2026-04-06T10:01:01.462Z</time></trkpt><trkpt lat="45.5683433" lon="8.6643"><ele>189.0</ele><time>2026-04-06T10:01:05.461Z</time></trkpt><trkpt lat="45.5683367" lon="8.6642083"><ele>189.0</ele><time>2026-04-06T10:01:08.465Z</time></trkpt><trkpt lat="45.5683333" lon="8.6641167"><ele>189.0</ele><time>2026-04-06T10:01:11.462Z</time></trkpt><trkpt lat="45.5683267" lon="8.664025"><ele>189.0</ele><time>2026-04-06T10:01:14.463Z</time></trkpt><trkpt lat="45.56832" lon="8.6639283"><ele>189.0</ele><time>2026-04-06T10:01:17.463Z</time></trkpt><trkpt lat="45.56831" lon="8.6638333"><ele>189.0</ele><time>2026-04-06T10:01:20.459Z</time></trkpt><trkpt lat="45.5683017" lon="8.66374"><ele>189.0</ele><time>2026-04-06T10:01:23.464Z</time></trkpt><trkpt lat="45.568295" lon="8.66364"><ele>189.0</ele><time>2026-04-06T10:01:26.462Z</time></trkpt><trkpt lat="45.5682867" lon="8.6635467"><ele>189.0</ele><time>2026-04-06T10:01:29.459Z</time></trkpt><trkpt lat="45.56828" lon="8.6634567"><ele>189.0</ele><time>2026-04-06T10:01:32.462Z</time></trkpt><trkpt lat="45.56827" lon="8.6633617"><ele>189.0</ele><time>2026-04-06T10:01:35.455Z</time></trkpt><trkpt lat="45.5682633" lon="8.6632617"><ele>189.0</ele><time>2026-04-06T10:01:38.463Z</time></trkpt><trkpt lat="45.5682567" lon="8.6631617"><ele>189.0</ele><time>2026-04-06T10:01:41.458Z</time></trkpt><trkpt lat="45.568245" lon="8.66306"><ele>189.0</ele><time>2026-04-06T10:01:44.463Z</time></trkpt><trkpt lat="45.568235" lon="8.6629517"><ele>189.0</ele><time>2026-04-06T10:01:47.46Z</time></trkpt><trkpt lat="45.5682267" lon="8.6628433"><ele>189.0</ele><time>2026-04-06T10:01:50.463Z</time></trkpt><trkpt lat="45.5682167" lon="8.662735"><ele>189.0</ele><time>2026-04-06T10:01:53.46Z</time></trkpt><trkpt lat="45.56821" lon="8.6626317"><ele>189.0</ele><time>2026-04-06T10:01:56.463Z</time></trkpt><trkpt lat="45.5681983" lon="8.6625267"><ele>189.0</ele><time>2026-04-06T10:01:59.459Z</time></trkpt><trkpt lat="45.5681833" lon="8.6624217"><ele>189.0</ele><time>2026-04-06T10:02:02.462Z</time></trkpt><trkpt lat="45.56818" lon="8.6623167"><ele>189.0</ele><time>2026-04-06T10:02:05.461Z</time></trkpt><trkpt lat="45.56817" lon="8.66221"><ele>189.0</ele><time>2026-04-06T10:02:08.464Z</time></trkpt><trkpt lat="45.56816" lon="8.662105"><ele>189.0</ele><time>2026-04-06T10:02:11.461Z</time></trkpt><trkpt lat="45.5681483" lon="8.6620033"><ele>189.0</ele><time>2026-04-06T10:02:14.463Z</time></trkpt><trkpt lat="45.56815" lon="8.6618983"><ele>189.0</ele><time>2026-04-06T10:02:17.46Z</time></trkpt><trkpt lat="45.5681533" lon="8.6617817"><ele>189.0</ele><time>2026-04-06T10:02:20.455Z</time></trkpt><trkpt lat="45.5681533" lon="8.661665"><ele>189.0</ele><time>2026-04-06T10:02:23.46Z</time></trkpt><trkpt lat="45.5681567" lon="8.661565"><ele>189.0</ele><time>2026-04-06T10:02:26.454Z</time></trkpt><trkpt lat="45.5681717" lon="8.66147"><ele>189.0</ele><time>2026-04-06T10:02:29.463Z</time></trkpt><trkpt lat="45.5681867" lon="8.66138"><ele>189.0</ele><time>2026-04-06T10:02:32.464Z</time></trkpt><trkpt lat="45.5681967" lon="8.6612883"><ele>189.0</ele><time>2026-04-06T10:02:35.461Z</time></trkpt><trkpt lat="45.568205" lon="8.6611967"><ele>188.85714285714286</ele><time>2026-04-06T10:02:38.463Z</time></trkpt><trkpt lat="45.5682167" lon="8.6611017"><ele>188.71428571428572</ele><time>2026-04-06T10:02:41.467Z</time></trkpt><trkpt lat="45.5682333" lon="8.661005"><ele>188.57142857142856</ele><time>2026-04-06T10:02:44.467Z</time></trkpt><trkpt lat="45.5682567" lon="8.66091"><ele>188.42857142857144</ele><time>2026-04-06T10:02:47.461Z</time></trkpt><trkpt lat="45.5682683" lon="8.66082"><ele>188.28571428571428</ele><time>2026-04-06T10:02:50.463Z</time></trkpt><trkpt lat="45.5682917" lon="8.6607233"><ele>188.14285714285714</ele><time>2026-04-06T10:02:53.463Z</time></trkpt><trkpt lat="45.5683133" lon="8.6606233"><ele>188.0</ele><time>2026-04-06T10:02:56.463Z</time></trkpt><trkpt lat="45.56833" lon="8.66052"><ele>188.0</ele><time>2026-04-06T10:02:59.454Z</time></trkpt><trkpt lat="45.5683467" lon="8.6604233"><ele>188.0</ele><time>2026-04-06T10:03:02.463Z</time></trkpt><trkpt lat="45.5683667" lon="8.6603283"><ele>188.0</ele><time>2026-04-06T10:03:05.462Z</time></trkpt><trkpt lat="45.5683833" lon="8.6602267"><ele>188.0</ele><time>2026-04-06T10:03:08.462Z</time></trkpt><trkpt lat="45.568405" lon="8.66012"><ele>188.0</ele><time>2026-04-06T10:03:11.463Z</time></trkpt><trkpt lat="45.5684317" lon="8.6600167"><ele>188.0</ele><time>2026-04-06T10:03:14.464Z</time></trkpt><trkpt lat="45.56845" lon="8.6599183"><ele>188.0</ele><time>2026-04-06T10:03:17.462Z</time></trkpt><trkpt lat="45.5684717" lon="8.65982"><ele>188.14285714285714</ele><time>2026-04-06T10:03:20.463Z</time></trkpt><trkpt lat="45.5684917" lon="8.6597183"><ele>188.28571428571428</ele><time>2026-04-06T10:03:23.462Z</time></trkpt><trkpt lat="45.5685167" lon="8.6596167"><ele>188.42857142857144</ele><time>2026-04-06T10:03:26.466Z</time></trkpt><trkpt lat="45.5685383" lon="8.6595183"><ele>188.57142857142856</ele><time>2026-04-06T10:03:29.463Z</time></trkpt><trkpt lat="45.5685583" lon="8.6594217"><ele>188.71428571428572</ele><time>2026-04-06T10:03:32.464Z</time></trkpt><trkpt lat="45.5685783" lon="8.6593267"><ele>188.85714285714286</ele><time>2026-04-06T10:03:35.463Z</time></trkpt><trkpt lat="45.5686" lon="8.6592317"><ele>189.0</ele><time>2026-04-06T10:03:38.466Z</time></trkpt><trkpt lat="45.56862" lon="8.6591333"><ele>189.0</ele><time>2026-04-06T10:03:41.454Z</time></trkpt><trkpt lat="45.56864" lon="8.659035"><ele>189.0</ele><time>2026-04-06T10:03:44.467Z</time></trkpt><trkpt lat="45.5686617" lon="8.658935"><ele>189.0</ele><time>2026-04-06T10:03:47.461Z</time></trkpt><trkpt lat="45.5686717" lon="8.65884"><ele>189.0</ele><time>2026-04-06T10:03:50.47Z</time></trkpt><trkpt lat="45.56869" lon="8.6587533"><ele>189.0</ele><time>2026-04-06T10:03:53.463Z</time></trkpt><trkpt lat="45.56871" lon="8.6586667"><ele>189.0</ele><time>2026-04-06T10:03:56.464Z</time></trkpt><trkpt lat="45.568725" lon="8.6585783"><ele>189.0</ele><time>2026-04-06T10:03:59.456Z</time></trkpt><trkpt lat="45.5687433" lon="8.6584867"><ele>189.14285714285714</ele><time>2026-04-06T10:04:02.461Z</time></trkpt><trkpt lat="45.56876" lon="8.65839"><ele>189.28571428571428</ele><time>2026-04-06T10:04:06.46Z</time></trkpt><trkpt lat="45.568775" lon="8.6582967"><ele>189.42857142857144</ele><time>2026-04-06T10:04:10.461Z</time></trkpt><trkpt lat="45.5687917" lon="8.6581967"><ele>189.57142857142856</ele><time>2026-04-06T10:04:14.463Z</time></trkpt><trkpt lat="45.5688083" lon="8.6580883"><ele>189.71428571428572</ele><time>2026-04-06T10:04:18.463Z</time></trkpt><trkpt lat="45.5688283" lon="8.6579833"><ele>189.85714285714286</ele><time>2026-04-06T10:04:22.462Z</time></trkpt><trkpt lat="45.5688417" lon="8.6578717"><ele>190.0</ele><time>2026-04-06T10:04:26.463Z</time></trkpt><trkpt lat="45.568855" lon="8.6577683"><ele>190.33333333333334</ele><time>2026-04-06T10:04:29.456Z</time></trkpt><trkpt lat="45.568865" lon="8.6576667"><ele>190.66666666666669</ele><time>2026-04-06T10:04:32.466Z</time></trkpt><trkpt lat="45.568875" lon="8.6575533"><ele>191.0</ele><time>2026-04-06T10:04:35.46Z</time></trkpt><trkpt lat="45.56888" lon="8.657435"><ele>191.33333333333334</ele><time>2026-04-06T10:04:38.464Z</time></trkpt><trkpt lat="45.5688783" lon="8.6573283"><ele>191.66666666666666</ele><time>2026-04-06T10:04:41.461Z</time></trkpt><trkpt lat="45.56887" lon="8.65723"><ele>192.0</ele><time>2026-04-06T10:04:44.459Z</time></trkpt><trkpt lat="45.5688683" lon="8.6571233"><ele>191.99999999999997</ele><time>2026-04-06T10:04:47.461Z</time></trkpt><trkpt lat="45.5688617" lon="8.657015"><ele>192.0</ele><time>2026-04-06T10:04:50.462Z</time></trkpt><trkpt lat="45.5688583" lon="8.656915"><ele>192.0</ele><time>2026-04-06T10:04:53.464Z</time></trkpt><trkpt lat="45.5688617" lon="8.6567967"><ele>192.0</ele><time>2026-04-06T10:04:57.463Z</time></trkpt><trkpt lat="45.5688583" lon="8.656705"><ele>192.0</ele><time>2026-04-06T10:05:00.462Z</time></trkpt><trkpt lat="45.5688533" lon="8.65661"><ele>191.99999999999997</ele><time>2026-04-06T10:05:03.463Z</time></trkpt><trkpt lat="45.5688483" lon="8.656505"><ele>192.0</ele><time>2026-04-06T10:05:06.462Z</time></trkpt><trkpt lat="45.5688467" lon="8.6564083"><ele>191.99999999999997</ele><time>2026-04-06T10:05:09.462Z</time></trkpt><trkpt lat="45.5688517" lon="8.6563067"><ele>192.0</ele><time>2026-04-06T10:05:12.461Z</time></trkpt><trkpt lat="45.5688583" lon="8.6562"><ele>192.0</ele><time>2026-04-06T10:05:15.46Z</time></trkpt><trkpt lat="45.5688667" lon="8.6561"><ele>192.0</ele><time>2026-04-06T10:05:18.463Z</time></trkpt><trkpt lat="45.5688767" lon="8.6559883"><ele>192.0</ele><time>2026-04-06T10:05:22.462Z</time></trkpt><trkpt lat="45.56889" lon="8.6558783"><ele>191.99999999999997</ele><time>2026-04-06T10:05:25.462Z</time></trkpt><trkpt lat="45.5689" lon="8.6557817"><ele>192.0</ele><time>2026-04-06T10:05:28.462Z</time></trkpt><trkpt lat="45.568905" lon="8.65569"><ele>191.99999999999997</ele><time>2026-04-06T10:05:31.461Z</time></trkpt><trkpt lat="45.5689183" lon="8.6555767"><ele>192.0</ele><time>2026-04-06T10:05:35.463Z</time></trkpt><trkpt lat="45.568925" lon="8.6554867"><ele>192.0</ele><time>2026-04-06T10:05:38.464Z</time></trkpt><trkpt lat="45.5689283" lon="8.655395"><ele>192.0</ele><time>2026-04-06T10:05:41.461Z</time></trkpt><trkpt lat="45.568935" lon="8.655295"><ele>192.0</ele><time>2026-04-06T10:05:44.462Z</time></trkpt><trkpt lat="45.56894" lon="8.6551983"><ele>191.99999999999997</ele><time>2026-04-06T10:05:47.464Z</time></trkpt><trkpt lat="45.5689483" lon="8.6551"><ele>192.0</ele><time>2026-04-06T10:05:50.464Z</time></trkpt><trkpt lat="45.5689517" lon="8.6550083"><ele>191.99999999999997</ele><time>2026-04-06T10:05:53.465Z</time></trkpt><trkpt lat="45.5689517" lon="8.654915"><ele>192.0</ele><time>2026-04-06T10:05:56.465Z</time></trkpt><trkpt lat="45.56896" lon="8.65482"><ele>192.0</ele><time>2026-04-06T10:05:59.462Z</time></trkpt><trkpt lat="45.5689733" lon="8.6547233"><ele>192.0</ele><time>2026-04-06T10:06:02.465Z</time></trkpt><trkpt lat="45.568975" lon="8.6546083"><ele>192.0</ele><time>2026-04-06T10:06:06.462Z</time></trkpt><trkpt lat="45.5689717" lon="8.6544917"><ele>191.99999999999997</ele><time>2026-04-06T10:06:09.463Z</time></trkpt><trkpt lat="45.5689783" lon="8.6543767"><ele>192.0</ele><time>2026-04-06T10:06:12.454Z</time></trkpt><trkpt lat="45.5689917" lon="8.6542817"><ele>191.99999999999997</ele><time>2026-04-06T10:06:15.459Z</time></trkpt><trkpt lat="45.56901" lon="8.6541933"><ele>192.0</ele><time>2026-04-06T10:06:18.461Z</time></trkpt><trkpt lat="45.56903" lon="8.6541"><ele>192.0</ele><time>2026-04-06T10:06:21.464Z</time></trkpt><trkpt lat="45.569045" lon="8.6539833"><ele>192.0</ele><time>2026-04-06T10:06:25.461Z</time></trkpt><trkpt lat="45.56906" lon="8.6538867"><ele>192.0</ele><time>2026-04-06T10:06:28.461Z</time></trkpt><trkpt lat="45.5690767" lon="8.65378"><ele>191.99999999999997</ele><time>2026-04-06T10:06:31.462Z</time></trkpt><trkpt lat="45.5691" lon="8.6536717"><ele>192.0</ele><time>2026-04-06T10:06:34.456Z</time></trkpt><trkpt lat="45.5691117" lon="8.6535767"><ele>191.99999999999997</ele><time>2026-04-06T10:06:37.462Z</time></trkpt><trkpt lat="45.5691317" lon="8.6534833"><ele>192.0</ele><time>2026-04-06T10:06:40.461Z</time></trkpt><trkpt lat="45.569145" lon="8.6533683"><ele>192.0</ele><time>2026-04-06T10:06:44.455Z</time></trkpt><trkpt lat="45.5691567" lon="8.653275"><ele>192.0</ele><time>2026-04-06T10:06:47.46Z</time></trkpt><trkpt lat="45.5691633" lon="8.65318"><ele>192.0</ele><time>2026-04-06T10:06:50.463Z</time></trkpt><trkpt lat="45.5691717" lon="8.6530867"><ele>191.99999999999997</ele><time>2026-04-06T10:06:53.46Z</time></trkpt><trkpt lat="45.5691817" lon="8.6529917"><ele>192.0</ele><time>2026-04-06T10:06:56.464Z</time></trkpt><trkpt lat="45.569185" lon="8.6528967"><ele>191.99999999999997</ele><time>2026-04-06T10:06:59.466Z</time></trkpt><trkpt lat="45.569185" lon="8.6528"><ele>192.0</ele><time>2026-04-06T10:07:03.466Z</time></trkpt><trkpt lat="45.569195" lon="8.65268"><ele>192.0</ele><time>2026-04-06T10:07:07.462Z</time></trkpt><trkpt lat="45.569205" lon="8.65258"><ele>192.0</ele><time>2026-04-06T10:07:10.46Z</time></trkpt><trkpt lat="45.5692083" lon="8.6524717"><ele>192.0</ele><time>2026-04-06T10:07:14.462Z</time></trkpt><trkpt lat="45.5692183" lon="8.65235"><ele>191.99999999999997</ele><time>2026-04-06T10:07:18.46Z</time></trkpt><trkpt lat="45.569225" lon="8.6522583"><ele>192.0</ele><time>2026-04-06T10:07:21.459Z</time></trkpt><trkpt lat="45.5692317" lon="8.6521533"><ele>191.99999999999997</ele><time>2026-04-06T10:07:24.461Z</time></trkpt><trkpt lat="45.569235" lon="8.652055"><ele>192.0</ele><time>2026-04-06T10:07:27.462Z</time></trkpt><trkpt lat="45.569245" lon="8.6519333"><ele>192.0</ele><time>2026-04-06T10:07:31.461Z</time></trkpt><trkpt lat="45.5692517" lon="8.65184"><ele>192.0</ele><time>2026-04-06T10:07:34.461Z</time></trkpt><trkpt lat="45.5692583" lon="8.6517283"><ele>192.0</ele><time>2026-04-06T10:07:37.463Z</time></trkpt><trkpt lat="45.5692567" lon="8.6516333"><ele>191.99999999999997</ele><time>2026-04-06T10:07:40.462Z</time></trkpt><trkpt lat="45.5692633" lon="8.6515333"><ele>192.0</ele><time>2026-04-06T10:07:43.453Z</time></trkpt><trkpt lat="45.56927" lon="8.6514333"><ele>191.99999999999997</ele><time>2026-04-06T10:07:46.461Z</time></trkpt><trkpt lat="45.569275" lon="8.6513433"><ele>192.0</ele><time>2026-04-06T10:07:49.46Z</time></trkpt><trkpt lat="45.5693083" lon="8.6512267"><ele>192.0</ele><time>2026-04-06T10:07:52.465Z</time></trkpt><trkpt lat="45.5693767" lon="8.651185"><ele>192.0</ele><time>2026-04-06T10:07:55.461Z</time></trkpt><trkpt lat="45.56945" lon="8.65117"><ele>192.0</ele><time>2026-04-06T10:07:58.457Z</time></trkpt><trkpt lat="45.5695183" lon="8.6511633"><ele>191.99999999999997</ele><time>2026-04-06T10:08:01.461Z</time></trkpt><trkpt lat="45.5695933" lon="8.6511583"><ele>192.0</ele><time>2026-04-06T10:08:04.459Z</time></trkpt><trkpt lat="45.5696583" lon="8.6511483"><ele>191.99999999999997</ele><time>2026-04-06T10:08:07.456Z</time></trkpt><trkpt lat="45.5697333" lon="8.65115"><ele>192.0</ele><time>2026-04-06T10:08:11.457Z</time></trkpt><trkpt lat="45.5698133" lon="8.6511617"><ele>192.0</ele><time>2026-04-06T10:08:15.454Z</time></trkpt><trkpt lat="45.5698933" lon="8.6511683"><ele>192.0</ele><time>2026-04-06T10:08:19.463Z</time></trkpt><trkpt lat="45.56996" lon="8.65117"><ele>192.0</ele><time>2026-04-06T10:08:22.462Z</time></trkpt><trkpt lat="45.5700333" lon="8.651175"><ele>191.99999999999997</ele><time>2026-04-06T10:08:25.459Z</time></trkpt><trkpt lat="45.5701017" lon="8.6511817"><ele>192.0</ele><time>2026-04-06T10:08:28.461Z</time></trkpt><trkpt lat="45.570165" lon="8.6512"><ele>192.0</ele><time>2026-04-06T10:08:31.46Z</time></trkpt><trkpt lat="45.5702433" lon="8.65121"><ele>192.0</ele><time>2026-04-06T10:08:35.453Z</time></trkpt><trkpt lat="45.570315" lon="8.6512017"><ele>192.0</ele><time>2026-04-06T10:08:39.46Z</time></trkpt><trkpt lat="45.570385" lon="8.651185"><ele>192.0</ele><time>2026-04-06T10:08:44.458Z</time></trkpt><trkpt lat="45.5704533" lon="8.6511883"><ele>192.0</ele><time>2026-04-06T10:08:47.453Z</time></trkpt><trkpt lat="45.570535" lon="8.6511967"><ele>192.0</ele><time>2026-04-06T10:08:50.463Z</time></trkpt><trkpt lat="45.5706183" lon="8.651215"><ele>192.33333333333334</ele><time>2026-04-06T10:08:53.461Z</time></trkpt><trkpt lat="45.5707033" lon="8.65123"><ele>192.66666666666669</ele><time>2026-04-06T10:08:56.463Z</time></trkpt><trkpt lat="45.57078" lon="8.65123"><ele>193.0</ele><time>2026-04-06T10:08:59.459Z</time></trkpt><trkpt lat="45.5708533" lon="8.6512317"><ele>193.33333333333334</ele><time>2026-04-06T10:09:02.464Z</time></trkpt><trkpt lat="45.5709233" lon="8.6512283"><ele>193.66666666666669</ele><time>2026-04-06T10:09:05.458Z</time></trkpt><trkpt lat="45.571005" lon="8.6512317"><ele>194.0</ele><time>2026-04-06T10:09:08.461Z</time></trkpt><trkpt lat="45.57109" lon="8.6512367"><ele>194.00000000000003</ele><time>2026-04-06T10:09:11.461Z</time></trkpt><trkpt lat="45.57117" lon="8.651245"><ele>194.0</ele><time>2026-04-06T10:09:14.459Z</time></trkpt><trkpt lat="45.5712417" lon="8.6512567"><ele>194.0</ele><time>2026-04-06T10:09:17.462Z</time></trkpt><trkpt lat="45.5713217" lon="8.6512633"><ele>194.0</ele><time>2026-04-06T10:09:20.463Z</time></trkpt><trkpt lat="45.5714" lon="8.6512617"><ele>194.00000000000003</ele><time>2026-04-06T10:09:23.454Z</time></trkpt><trkpt lat="45.5714633" lon="8.651265"><ele>194.0</ele><time>2026-04-06T10:09:26.463Z</time></trkpt><trkpt lat="45.57155" lon="8.651275"><ele>194.0</ele><time>2026-04-06T10:09:30.461Z</time></trkpt><trkpt lat="45.5716217" lon="8.6512717"><ele>194.0</ele><time>2026-04-06T10:09:33.462Z</time></trkpt><trkpt lat="45.571685" lon="8.6512783"><ele>194.0</ele><time>2026-04-06T10:09:36.454Z</time></trkpt><trkpt lat="45.5717633" lon="8.6512733"><ele>194.0</ele><time>2026-04-06T10:09:40.462Z</time></trkpt><trkpt lat="45.5718283" lon="8.65127"><ele>194.0</ele><time>2026-04-06T10:09:44.464Z</time></trkpt><trkpt lat="45.5718917" lon="8.6512583"><ele>194.0</ele><time>2026-04-06T10:09:50.462Z</time></trkpt><trkpt lat="45.57196" lon="8.65126"><ele>194.0</ele><time>2026-04-06T10:09:53.464Z</time></trkpt><trkpt lat="45.5720433" lon="8.6512667"><ele>194.0</ele><time>2026-04-06T10:09:56.464Z</time></trkpt><trkpt lat="45.5721133" lon="8.6512467"><ele>194.0</ele><time>2026-04-06T10:09:59.461Z</time></trkpt><trkpt lat="45.5721733" lon="8.6511867"><ele>194.0</ele><time>2026-04-06T10:10:14.463Z</time></trkpt><trkpt lat="45.57222" lon="8.651105"><ele>194.0</ele><time>2026-04-06T10:10:18.466Z</time></trkpt><trkpt lat="45.5722317" lon="8.650995"><ele>194.0</ele><time>2026-04-06T10:10:22.462Z</time></trkpt><trkpt lat="45.5722483" lon="8.650895"><ele>194.0</ele><time>2026-04-06T10:10:25.462Z</time></trkpt><trkpt lat="45.572265" lon="8.6508017"><ele>194.0</ele><time>2026-04-06T10:10:28.454Z</time></trkpt><trkpt lat="45.5722917" lon="8.6506833"><ele>193.83333333333334</ele><time>2026-04-06T10:10:32.463Z</time></trkpt><trkpt lat="45.5723083" lon="8.6505733"><ele>193.66666666666669</ele><time>2026-04-06T10:10:35.461Z</time></trkpt><trkpt lat="45.5723267" lon="8.6504667"><ele>193.5</ele><time>2026-04-06T10:10:38.464Z</time></trkpt><trkpt lat="45.5723483" lon="8.6503567"><ele>193.33333333333331</ele><time>2026-04-06T10:10:41.463Z</time></trkpt><trkpt lat="45.572365" lon="8.6502533"><ele>193.16666666666666</ele><time>2026-04-06T10:10:44.463Z</time></trkpt><trkpt lat="45.5723767" lon="8.6501567"><ele>193.0</ele><time>2026-04-06T10:10:47.462Z</time></trkpt><trkpt lat="45.5723867" lon="8.650055"><ele>193.00000000000003</ele><time>2026-04-06T10:10:50.462Z</time></trkpt><trkpt lat="45.5724017" lon="8.6499467"><ele>193.0</ele><time>2026-04-06T10:10:53.463Z</time></trkpt><trkpt lat="45.5724183" lon="8.64985"><ele>193.0</ele><time>2026-04-06T10:10:56.465Z</time></trkpt><trkpt lat="45.5724367" lon="8.6497367"><ele>193.0</ele><time>2026-04-06T10:11:00.464Z</time></trkpt><trkpt lat="45.5724467" lon="8.6496383"><ele>193.0</ele><time>2026-04-06T10:11:03.458Z</time></trkpt><trkpt lat="45.57246" lon="8.6495383"><ele>193.00000000000003</ele><time>2026-04-06T10:11:06.46Z</time></trkpt><trkpt lat="45.572475" lon="8.649435"><ele>193.0</ele><time>2026-04-06T10:11:10.462Z</time></trkpt><trkpt lat="45.5724767" lon="8.649335"><ele>193.16666666666666</ele><time>2026-04-06T10:11:14.464Z</time></trkpt><trkpt lat="45.5724867" lon="8.64924"><ele>193.33333333333331</ele><time>2026-04-06T10:11:17.462Z</time></trkpt><trkpt lat="45.5724967" lon="8.649125"><ele>193.5</ele><time>2026-04-06T10:11:20.456Z</time></trkpt><trkpt lat="45.5725083" lon="8.6490233"><ele>193.66666666666669</ele><time>2026-04-06T10:11:23.46Z</time></trkpt><trkpt lat="45.5724783" lon="8.6489167"><ele>193.83333333333334</ele><time>2026-04-06T10:11:28.462Z</time></trkpt><trkpt lat="45.572495" lon="8.6488167"><ele>194.0</ele><time>2026-04-06T10:11:32.465Z</time></trkpt><trkpt lat="45.5724967" lon="8.6487033"><ele>193.85714285714286</ele><time>2026-04-06T10:11:36.459Z</time></trkpt><trkpt lat="45.5724933" lon="8.648605"><ele>193.71428571428572</ele><time>2026-04-06T10:11:39.454Z</time></trkpt><trkpt lat="45.5724983" lon="8.648515"><ele>193.57142857142858</ele><time>2026-04-06T10:11:42.463Z</time></trkpt><trkpt lat="45.5724983" lon="8.648405"><ele>193.42857142857144</ele><time>2026-04-06T10:11:47.461Z</time></trkpt><trkpt lat="45.57251" lon="8.6482983"><ele>193.28571428571428</ele><time>2026-04-06T10:11:52.461Z</time></trkpt><trkpt lat="45.57252" lon="8.6481983"><ele>193.14285714285717</ele><time>2026-04-06T10:11:56.461Z</time></trkpt><trkpt lat="45.5725233" lon="8.6480733"><ele>193.0</ele><time>2026-04-06T10:12:01.461Z</time></trkpt><trkpt lat="45.5725083" lon="8.6479633"><ele>193.00000000000003</ele><time>2026-04-06T10:12:05.462Z</time></trkpt><trkpt lat="45.5724967" lon="8.6478633"><ele>193.0</ele><time>2026-04-06T10:12:10.463Z</time></trkpt><trkpt lat="45.572495" lon="8.6477633"><ele>193.0</ele><time>2026-04-06T10:12:15.462Z</time></trkpt><trkpt lat="45.5724967" lon="8.647665"><ele>193.0</ele><time>2026-04-06T10:12:18.463Z</time></trkpt><trkpt lat="45.5724867" lon="8.64757"><ele>193.0</ele><time>2026-04-06T10:12:21.462Z</time></trkpt><trkpt lat="45.57248" lon="8.6474783"><ele>193.00000000000003</ele><time>2026-04-06T10:12:24.461Z</time></trkpt><trkpt lat="45.5724667" lon="8.647385"><ele>193.0</ele><time>2026-04-06T10:12:27.463Z</time></trkpt><trkpt lat="45.572465" lon="8.6472933"><ele>193.14285714285717</ele><time>2026-04-06T10:12:30.459Z</time></trkpt><trkpt lat="45.5724583" lon="8.6471717"><ele>193.28571428571428</ele><time>2026-04-06T10:12:34.46Z</time></trkpt><trkpt lat="45.572455" lon="8.647075"><ele>193.42857142857144</ele><time>2026-04-06T10:12:37.46Z</time></trkpt><trkpt lat="45.5724367" lon="8.6469883"><ele>193.57142857142858</ele><time>2026-04-06T10:12:40.461Z</time></trkpt><trkpt lat="45.5724117" lon="8.6468817"><ele>193.71428571428572</ele><time>2026-04-06T10:12:44.464Z</time></trkpt><trkpt lat="45.5724183" lon="8.64679"><ele>193.85714285714286</ele><time>2026-04-06T10:12:47.461Z</time></trkpt><trkpt lat="45.572425" lon="8.6466883"><ele>194.0</ele><time>2026-04-06T10:12:50.462Z</time></trkpt><trkpt lat="45.57241" lon="8.646575"><ele>194.28571428571428</ele><time>2026-04-06T10:12:54.46Z</time></trkpt><trkpt lat="45.5723967" lon="8.6464583"><ele>194.57142857142858</ele><time>2026-04-06T10:12:58.462Z</time></trkpt><trkpt lat="45.57238" lon="8.64637"><ele>194.85714285714286</ele><time>2026-04-06T10:13:01.46Z</time></trkpt><trkpt lat="45.5723683" lon="8.6462667"><ele>195.14285714285714</ele><time>2026-04-06T10:13:05.46Z</time></trkpt><trkpt lat="45.5723483" lon="8.6461667"><ele>195.42857142857144</ele><time>2026-04-06T10:13:09.463Z</time></trkpt><trkpt lat="45.57233" lon="8.6460783"><ele>195.71428571428572</ele><time>2026-04-06T10:13:13.454Z</time></trkpt><trkpt lat="45.57231" lon="8.64599"><ele>196.0</ele><time>2026-04-06T10:13:17.462Z</time></trkpt><trkpt lat="45.5722933" lon="8.6458783"><ele>196.42857142857142</ele><time>2026-04-06T10:13:22.454Z</time></trkpt><trkpt lat="45.572275" lon="8.6457733"><ele>196.85714285714286</ele><time>2026-04-06T10:13:26.462Z</time></trkpt><trkpt lat="45.5722533" lon="8.6456633"><ele>197.28571428571428</ele><time>2026-04-06T10:13:30.462Z</time></trkpt><trkpt lat="45.5722267" lon="8.6455683"><ele>197.71428571428572</ele><time>2026-04-06T10:13:33.462Z</time></trkpt><trkpt lat="45.5722017" lon="8.6454733"><ele>198.14285714285714</ele><time>2026-04-06T10:13:36.46Z</time></trkpt><trkpt lat="45.5721883" lon="8.64538"><ele>198.57142857142856</ele><time>2026-04-06T10:13:39.461Z</time></trkpt><trkpt lat="45.5721733" lon="8.64529"><ele>199.0</ele><time>2026-04-06T10:13:42.46Z</time></trkpt><trkpt lat="45.5721483" lon="8.6451933"><ele>198.99999999999997</ele><time>2026-04-06T10:13:46.461Z</time></trkpt><trkpt lat="45.5721383" lon="8.6450917"><ele>199.0</ele><time>2026-04-06T10:13:50.464Z</time></trkpt><trkpt lat="45.5721317" lon="8.6449883"><ele>199.0</ele><time>2026-04-06T10:13:54.46Z</time></trkpt><trkpt lat="45.5721317" lon="8.644895"><ele>199.0</ele><time>2026-04-06T10:13:57.46Z</time></trkpt><trkpt lat="45.5721233" lon="8.6447933"><ele>199.0</ele><time>2026-04-06T10:14:01.461Z</time></trkpt><trkpt lat="45.5721117" lon="8.6446933"><ele>198.99999999999997</ele><time>2026-04-06T10:14:05.46Z</time></trkpt><trkpt lat="45.5720983" lon="8.644605"><ele>199.0</ele><time>2026-04-06T10:14:08.465Z</time></trkpt><trkpt lat="45.5720867" lon="8.6445083"><ele>198.66666666666666</ele><time>2026-04-06T10:14:12.457Z</time></trkpt><trkpt lat="45.5720717" lon="8.6443967"><ele>198.33333333333331</ele><time>2026-04-06T10:14:16.462Z</time></trkpt><trkpt lat="45.57207" lon="8.6442967"><ele>198.0</ele><time>2026-04-06T10:14:19.46Z</time></trkpt><trkpt lat="45.5720583" lon="8.64419"><ele>197.66666666666669</ele><time>2026-04-06T10:14:23.462Z</time></trkpt><trkpt lat="45.5720317" lon="8.6440833"><ele>197.33333333333334</ele><time>2026-04-06T10:14:27.461Z</time></trkpt><trkpt lat="45.572005" lon="8.643985"><ele>197.0</ele><time>2026-04-06T10:14:32.455Z</time></trkpt><trkpt lat="45.5720183" lon="8.6438817"><ele>196.83333333333334</ele><time>2026-04-06T10:14:36.46Z</time></trkpt><trkpt lat="45.5720483" lon="8.6438017"><ele>196.66666666666669</ele><time>2026-04-06T10:14:39.461Z</time></trkpt><trkpt lat="45.5721067" lon="8.6437183"><ele>196.5</ele><time>2026-04-06T10:14:42.462Z</time></trkpt><trkpt lat="45.5721867" lon="8.6436383"><ele>196.33333333333331</ele><time>2026-04-06T10:14:45.462Z</time></trkpt><trkpt lat="45.572265" lon="8.6435817"><ele>196.16666666666666</ele><time>2026-04-06T10:14:48.462Z</time></trkpt><trkpt lat="45.5723" lon="8.6434567"><ele>196.0</ele><time>2026-04-06T10:14:51.461Z</time></trkpt><trkpt lat="45.572275" lon="8.643365"><ele>196.0</ele><time>2026-04-06T10:14:53.453Z</time></trkpt><trkpt lat="45.5722167" lon="8.6433083"><ele>196.0</ele><time>2026-04-06T10:14:56.467Z</time></trkpt><trkpt lat="45.572145" lon="8.6433583"><ele>196.0</ele><time>2026-04-06T10:14:59.461Z</time></trkpt><trkpt lat="45.5720817" lon="8.64337"><ele>196.0</ele><time>2026-04-06T10:15:02.464Z</time></trkpt><trkpt lat="45.5720367" lon="8.6434617"><ele>196.0</ele><time>2026-04-06T10:15:28.462Z</time></trkpt><trkpt lat="45.5719583" lon="8.6434383"><ele>196.0</ele><time>2026-04-06T10:15:32.463Z</time></trkpt><trkpt lat="45.571925" lon="8.6433583"><ele>196.0</ele><time>2026-04-06T10:15:35.455Z</time></trkpt><trkpt lat="45.5718667" lon="8.643275"><ele>196.0</ele><time>2026-04-06T10:15:39.461Z</time></trkpt><trkpt lat="45.5718383" lon="8.6431917"><ele>196.0</ele><time>2026-04-06T10:15:42.463Z</time></trkpt><trkpt lat="45.5718083" lon="8.6430867"><ele>196.0</ele><time>2026-04-06T10:15:46.46Z</time></trkpt><trkpt lat="45.5717667" lon="8.642985"><ele>196.0</ele><time>2026-04-06T10:15:50.463Z</time></trkpt><trkpt lat="45.5717483" lon="8.6428933"><ele>196.0</ele><time>2026-04-06T10:15:53.461Z</time></trkpt><trkpt lat="45.5717117" lon="8.642795"><ele>196.0</ele><time>2026-04-06T10:15:57.463Z</time></trkpt><trkpt lat="45.5716917" lon="8.6427033"><ele>196.0</ele><time>2026-04-06T10:16:03.461Z</time></trkpt><trkpt lat="45.5716167" lon="8.6427433"><ele>196.16666666666666</ele><time>2026-04-06T10:16:10.462Z</time></trkpt><trkpt lat="45.5715417" lon="8.642765"><ele>196.33333333333331</ele><time>2026-04-06T10:16:13.459Z</time></trkpt><trkpt lat="45.571465" lon="8.6427433"><ele>196.5</ele><time>2026-04-06T10:16:16.461Z</time></trkpt><trkpt lat="45.5713983" lon="8.64266"><ele>196.66666666666669</ele><time>2026-04-06T10:16:19.464Z</time></trkpt><trkpt lat="45.5713583" lon="8.6425583"><ele>196.83333333333334</ele><time>2026-04-06T10:16:22.46Z</time></trkpt><trkpt lat="45.5713367" lon="8.6424283"><ele>197.0</ele><time>2026-04-06T10:16:25.46Z</time></trkpt><trkpt lat="45.5713117" lon="8.6423067"><ele>197.00000000000003</ele><time>2026-04-06T10:16:28.463Z</time></trkpt><trkpt lat="45.57129" lon="8.6421783"><ele>197.0</ele><time>2026-04-06T10:16:31.46Z</time></trkpt><trkpt lat="45.571275" lon="8.6420733"><ele>197.0</ele><time>2026-04-06T10:16:34.462Z</time></trkpt><trkpt lat="45.5712567" lon="8.64197"><ele>197.0</ele><time>2026-04-06T10:16:37.461Z</time></trkpt><trkpt lat="45.5712367" lon="8.6418633"><ele>197.00000000000003</ele><time>2026-04-06T10:16:40.464Z</time></trkpt><trkpt lat="45.57121" lon="8.641755"><ele>197.0</ele><time>2026-04-06T10:16:43.463Z</time></trkpt><trkpt lat="45.5712433" lon="8.6416533"><ele>197.0</ele><time>2026-04-06T10:16:46.461Z</time></trkpt><trkpt lat="45.571295" lon="8.6416017"><ele>197.0</ele><time>2026-04-06T10:16:49.454Z</time></trkpt><trkpt lat="45.57133" lon="8.6415167"><ele>197.0</ele><time>2026-04-06T10:17:52.461Z</time></trkpt><trkpt lat="45.571395" lon="8.6414617"><ele>197.0</ele><time>2026-04-06T10:17:55.461Z</time></trkpt><trkpt lat="45.571455" lon="8.6414117"><ele>197.0</ele><time>2026-04-06T10:17:58.453Z</time></trkpt><trkpt lat="45.5715133" lon="8.641365"><ele>197.0</ele><time>2026-04-06T10:18:02.464Z</time></trkpt><trkpt lat="45.5715667" lon="8.6413117"><ele>197.0</ele><time>2026-04-06T10:18:05.461Z</time></trkpt><trkpt lat="45.5716233" lon="8.6412333"><ele>197.0</ele><time>2026-04-06T10:18:09.46Z</time></trkpt><trkpt lat="45.5716733" lon="8.6411667"><ele>197.0</ele><time>2026-04-06T10:18:13.461Z</time></trkpt><trkpt lat="45.57174" lon="8.64113"><ele>197.0</ele><time>2026-04-06T10:18:17.459Z</time></trkpt><trkpt lat="45.5718067" lon="8.641075"><ele>197.0</ele><time>2026-04-06T10:18:21.459Z</time></trkpt><trkpt lat="45.57186" lon="8.6410033"><ele>197.0</ele><time>2026-04-06T10:18:25.453Z</time></trkpt><trkpt lat="45.57191" lon="8.6409467"><ele>197.0</ele><time>2026-04-06T10:18:28.46Z</time></trkpt><trkpt lat="45.5719667" lon="8.640905"><ele>197.0</ele><time>2026-04-06T10:18:31.461Z</time></trkpt><trkpt lat="45.57204" lon="8.64085"><ele>197.0</ele><time>2026-04-06T10:18:35.463Z</time></trkpt><trkpt lat="45.572105" lon="8.640815"><ele>197.0</ele><time>2026-04-06T10:18:38.463Z</time></trkpt><trkpt lat="45.5721717" lon="8.6407717"><ele>197.0</ele><time>2026-04-06T10:18:41.46Z</time></trkpt><trkpt lat="45.5722433" lon="8.6407183"><ele>197.0</ele><time>2026-04-06T10:18:44.463Z</time></trkpt><trkpt lat="45.57231" lon="8.6406717"><ele>197.0</ele><time>2026-04-06T10:18:48.461Z</time></trkpt><trkpt lat="45.5723733" lon="8.64065"><ele>197.0</ele><time>2026-04-06T10:18:53.463Z</time></trkpt><trkpt lat="45.57243" lon="8.64061"><ele>197.0</ele><time>2026-04-06T10:19:00.455Z</time></trkpt><trkpt lat="45.5724917" lon="8.6405683"><ele>197.00000000000003</ele><time>2026-04-06T10:19:18.453Z</time></trkpt><trkpt lat="45.5724883" lon="8.6404783"><ele>197.0</ele><time>2026-04-06T10:19:23.454Z</time></trkpt><trkpt lat="45.572485" lon="8.640345"><ele>197.0</ele><time>2026-04-06T10:19:26.465Z</time></trkpt><trkpt lat="45.572475" lon="8.6402533"><ele>197.0</ele><time>2026-04-06T10:19:28.46Z</time></trkpt><trkpt lat="45.572455" lon="8.6401333"><ele>197.00000000000003</ele><time>2026-04-06T10:19:31.461Z</time></trkpt><trkpt lat="45.5724317" lon="8.64001"><ele>197.0</ele><time>2026-04-06T10:19:34.46Z</time></trkpt><trkpt lat="45.572405" lon="8.6398867"><ele>196.66666666666669</ele><time>2026-04-06T10:19:37.462Z</time></trkpt><trkpt lat="45.57238" lon="8.6397667"><ele>196.33333333333334</ele><time>2026-04-06T10:19:40.453Z</time></trkpt><trkpt lat="45.5723533" lon="8.6396667"><ele>196.0</ele><time>2026-04-06T10:19:43.46Z</time></trkpt><trkpt lat="45.572395" lon="8.6395833"><ele>195.66666666666669</ele><time>2026-04-06T10:19:47.454Z</time></trkpt><trkpt lat="45.5724633" lon="8.639525"><ele>195.33333333333334</ele><time>2026-04-06T10:19:51.46Z</time></trkpt><trkpt lat="45.5725233" lon="8.6394533"><ele>195.0</ele><time>2026-04-06T10:19:56.457Z</time></trkpt><trkpt lat="45.5725867" lon="8.6393933"><ele>195.0</ele><time>2026-04-06T10:20:00.462Z</time></trkpt><trkpt lat="45.572635" lon="8.6393233"><ele>195.0</ele><time>2026-04-06T10:20:09.46Z</time></trkpt></trkseg></trk></gpx>